<?xml version="1.0" encoding="UTF-8"?>
<gpx version="1.1" creator="Yamatabi logger for Android"
xmlns:xsi="http://www.w3.org/2001/XMLSchema-instance"
xmlns="http://www.topografix.com/GPX/1/1"
xmlns:chizroid="http://www.chizroid.info/ns/gpx"
xsi:schemaLocation="http://www.topografix.com/GPX/1/1 http://www.topografix.com/GPX/1/1/gpx.xsd
 http://www.chizroid.info/ns/gpx http://www.chizroid.info/ns/gpx.xsd">
<trk>
<name><![CDATA[2019-08-12 06:57:21]]></name>
<trkseg>
<trkpt lat="35.863342" lon="138.7548"><ele>1046</ele><time>2019-08-11T21:57:21Z</time></trkpt>
<trkpt lat="35.863228" lon="138.75461"><ele>1137</ele><time>2019-08-11T21:58:20Z</time></trkpt>
<trkpt lat="35.86323" lon="138.75461"><ele>1137</ele><time>2019-08-11T21:58:35Z</time></trkpt>
<trkpt lat="35.86323" lon="138.75461"><ele>1136</ele><time>2019-08-11T21:58:50Z</time></trkpt>
<trkpt lat="35.863235" lon="138.75461"><ele>1135</ele><time>2019-08-11T21:59:05Z</time></trkpt>
<trkpt lat="35.863243" lon="138.75447"><ele>1090</ele><time>2019-08-11T21:59:21Z</time></trkpt>
<trkpt lat="35.86319" lon="138.75453"><ele>1099</ele><time>2019-08-11T22:00:21Z</time></trkpt>
<trkpt lat="35.863068" lon="138.75482"><ele>1101</ele><time>2019-08-11T22:00:37Z</time></trkpt>
<trkpt lat="35.862923" lon="138.75497"><ele>1102</ele><time>2019-08-11T22:00:52Z</time></trkpt>
<trkpt lat="35.862785" lon="138.75505"><ele>1112</ele><time>2019-08-11T22:01:07Z</time></trkpt>
<trkpt lat="35.86261" lon="138.75505"><ele>1113</ele><time>2019-08-11T22:01:23Z</time></trkpt>
<trkpt lat="35.862453" lon="138.75513"><ele>1115</ele><time>2019-08-11T22:01:39Z</time></trkpt>
<trkpt lat="35.86232" lon="138.75523"><ele>1120</ele><time>2019-08-11T22:01:54Z</time></trkpt>
<trkpt lat="35.862343" lon="138.7554"><ele>1121</ele><time>2019-08-11T22:02:21Z</time></trkpt>
<trkpt lat="35.862514" lon="138.7554"><ele>1124</ele><time>2019-08-11T22:02:36Z</time></trkpt>
<trkpt lat="35.862545" lon="138.75545"><ele>1127</ele><time>2019-08-11T22:02:51Z</time></trkpt>
<trkpt lat="35.86271" lon="138.7555"><ele>1121</ele><time>2019-08-11T22:03:06Z</time></trkpt>
<trkpt lat="35.862907" lon="138.75551"><ele>1132</ele><time>2019-08-11T22:03:22Z</time></trkpt>
<trkpt lat="35.863094" lon="138.75536"><ele>1130</ele><time>2019-08-11T22:03:37Z</time></trkpt>
<trkpt lat="35.86316" lon="138.75525"><ele>1125</ele><time>2019-08-11T22:03:52Z</time></trkpt>
<trkpt lat="35.863235" lon="138.75517"><ele>1132</ele><time>2019-08-11T22:04:07Z</time></trkpt>
<trkpt lat="35.863323" lon="138.75508"><ele>1133</ele><time>2019-08-11T22:04:23Z</time></trkpt>
<trkpt lat="35.863422" lon="138.75493"><ele>1129</ele><time>2019-08-11T22:04:38Z</time></trkpt>
<trkpt lat="35.863617" lon="138.75479"><ele>1136</ele><time>2019-08-11T22:04:54Z</time></trkpt>
<trkpt lat="35.863747" lon="138.75467"><ele>1141</ele><time>2019-08-11T22:05:10Z</time></trkpt>
<trkpt lat="35.86388" lon="138.75467"><ele>1132</ele><time>2019-08-11T22:05:25Z</time></trkpt>
<trkpt lat="35.864063" lon="138.75446"><ele>1143</ele><time>2019-08-11T22:05:40Z</time></trkpt>
<trkpt lat="35.86422" lon="138.75429"><ele>1141</ele><time>2019-08-11T22:05:56Z</time></trkpt>
<trkpt lat="35.8644" lon="138.7543"><ele>1134</ele><time>2019-08-11T22:06:11Z</time></trkpt>
<trkpt lat="35.864594" lon="138.7543"><ele>1136</ele><time>2019-08-11T22:06:26Z</time></trkpt>
<trkpt lat="35.864765" lon="138.7541"><ele>1146</ele><time>2019-08-11T22:06:57Z</time></trkpt>
<trkpt lat="35.864876" lon="138.75398"><ele>1143</ele><time>2019-08-11T22:07:05Z</time></trkpt>
<trkpt lat="35.864845" lon="138.75381"><ele>1145</ele><time>2019-08-11T22:07:21Z</time></trkpt>
<trkpt lat="35.86491" lon="138.75362"><ele>1143</ele><time>2019-08-11T22:07:36Z</time></trkpt>
<trkpt lat="35.865005" lon="138.75339"><ele>1151</ele><time>2019-08-11T22:07:52Z</time></trkpt>
<trkpt lat="35.865093" lon="138.7532"><ele>1151</ele><time>2019-08-11T22:08:07Z</time></trkpt>
<trkpt lat="35.865154" lon="138.753"><ele>1150</ele><time>2019-08-11T22:08:22Z</time></trkpt>
<trkpt lat="35.865288" lon="138.7528"><ele>1156</ele><time>2019-08-11T22:08:37Z</time></trkpt>
<trkpt lat="35.865337" lon="138.75258"><ele>1165</ele><time>2019-08-11T22:08:53Z</time></trkpt>
<trkpt lat="35.86542" lon="138.75237"><ele>1174</ele><time>2019-08-11T22:09:08Z</time></trkpt>
<trkpt lat="35.865513" lon="138.75217"><ele>1162</ele><time>2019-08-11T22:09:23Z</time></trkpt>
<trkpt lat="35.865604" lon="138.75198"><ele>1162</ele><time>2019-08-11T22:09:39Z</time></trkpt>
<trkpt lat="35.865692" lon="138.75185"><ele>1155</ele><time>2019-08-11T22:09:54Z</time></trkpt>
<trkpt lat="35.865852" lon="138.75168"><ele>1157</ele><time>2019-08-11T22:10:09Z</time></trkpt>
<trkpt lat="35.86601" lon="138.7515"><ele>1167</ele><time>2019-08-11T22:10:24Z</time></trkpt>
<trkpt lat="35.86618" lon="138.75136"><ele>1169</ele><time>2019-08-11T22:10:39Z</time></trkpt>
<trkpt lat="35.86627" lon="138.7512"><ele>1171</ele><time>2019-08-11T22:10:54Z</time></trkpt>
<trkpt lat="35.866375" lon="138.75095"><ele>1159</ele><time>2019-08-11T22:11:09Z</time></trkpt>
<trkpt lat="35.86651" lon="138.7508"><ele>1168</ele><time>2019-08-11T22:11:24Z</time></trkpt>
<trkpt lat="35.86666" lon="138.75066"><ele>1169</ele><time>2019-08-11T22:11:39Z</time></trkpt>
<trkpt lat="35.86683" lon="138.75046"><ele>1160</ele><time>2019-08-11T22:11:54Z</time></trkpt>
<trkpt lat="35.866997" lon="138.7504"><ele>1158</ele><time>2019-08-11T22:12:06Z</time></trkpt>
<trkpt lat="35.867134" lon="138.7502"><ele>1153</ele><time>2019-08-11T22:12:22Z</time></trkpt>
<trkpt lat="35.867188" lon="138.74998"><ele>1157</ele><time>2019-08-11T22:12:38Z</time></trkpt>
<trkpt lat="35.8673" lon="138.74974"><ele>1153</ele><time>2019-08-11T22:12:53Z</time></trkpt>
<trkpt lat="35.867462" lon="138.7495"><ele>1144</ele><time>2019-08-11T22:13:08Z</time></trkpt>
<trkpt lat="35.86764" lon="138.74944"><ele>1146</ele><time>2019-08-11T22:13:24Z</time></trkpt>
<trkpt lat="35.86781" lon="138.74956"><ele>1144</ele><time>2019-08-11T22:13:39Z</time></trkpt>
<trkpt lat="35.86795" lon="138.7497"><ele>1146</ele><time>2019-08-11T22:13:54Z</time></trkpt>
<trkpt lat="35.86802" lon="138.74965"><ele>1151</ele><time>2019-08-11T22:14:09Z</time></trkpt>
<trkpt lat="35.868103" lon="138.74971"><ele>1153</ele><time>2019-08-11T22:14:24Z</time></trkpt>
<trkpt lat="35.868244" lon="138.74966"><ele>1158</ele><time>2019-08-11T22:14:40Z</time></trkpt>
<trkpt lat="35.868355" lon="138.74948"><ele>1156</ele><time>2019-08-11T22:14:55Z</time></trkpt>
<trkpt lat="35.868286" lon="138.74925"><ele>1151</ele><time>2019-08-11T22:15:10Z</time></trkpt>
<trkpt lat="35.868153" lon="138.74905"><ele>1147</ele><time>2019-08-11T22:15:25Z</time></trkpt>
<trkpt lat="35.86803" lon="138.74893"><ele>1146</ele><time>2019-08-11T22:15:40Z</time></trkpt>
<trkpt lat="35.8679" lon="138.74878"><ele>1148</ele><time>2019-08-11T22:15:56Z</time></trkpt>
<trkpt lat="35.867813" lon="138.7486"><ele>1152</ele><time>2019-08-11T22:16:12Z</time></trkpt>
<trkpt lat="35.867767" lon="138.74854"><ele>1155</ele><time>2019-08-11T22:16:28Z</time></trkpt>
<trkpt lat="35.86772" lon="138.7484"><ele>1157</ele><time>2019-08-11T22:16:59Z</time></trkpt>
<trkpt lat="35.86772" lon="138.7484"><ele>1157</ele><time>2019-08-11T22:17:06Z</time></trkpt>
<trkpt lat="35.86772" lon="138.74838"><ele>1153</ele><time>2019-08-11T22:18:09Z</time></trkpt>
<trkpt lat="35.86772" lon="138.74841"><ele>1162</ele><time>2019-08-11T22:18:43Z</time></trkpt>
<trkpt lat="35.867764" lon="138.74841"><ele>1157</ele><time>2019-08-11T22:19:13Z</time></trkpt>
<trkpt lat="35.86782" lon="138.74838"><ele>1157</ele><time>2019-08-11T22:19:28Z</time></trkpt>
<trkpt lat="35.867897" lon="138.74826"><ele>1147</ele><time>2019-08-11T22:19:44Z</time></trkpt>
<trkpt lat="35.86791" lon="138.74808"><ele>1159</ele><time>2019-08-11T22:19:59Z</time></trkpt>
<trkpt lat="35.867893" lon="138.74782"><ele>1165</ele><time>2019-08-11T22:20:15Z</time></trkpt>
<trkpt lat="35.867954" lon="138.74759"><ele>1164</ele><time>2019-08-11T22:20:31Z</time></trkpt>
<trkpt lat="35.867947" lon="138.74727"><ele>1160</ele><time>2019-08-11T22:20:48Z</time></trkpt>
<trkpt lat="35.868" lon="138.747"><ele>1163</ele><time>2019-08-11T22:21:04Z</time></trkpt>
<trkpt lat="35.86804" lon="138.7468"><ele>1169</ele><time>2019-08-11T22:21:19Z</time></trkpt>
<trkpt lat="35.868076" lon="138.74658"><ele>1175</ele><time>2019-08-11T22:21:34Z</time></trkpt>
<trkpt lat="35.86804" lon="138.74641"><ele>1168</ele><time>2019-08-11T22:21:50Z</time></trkpt>
<trkpt lat="35.86804" lon="138.74637"><ele>1159</ele><time>2019-08-11T22:22:05Z</time></trkpt>
<trkpt lat="35.86804" lon="138.74635"><ele>1159</ele><time>2019-08-11T22:22:06Z</time></trkpt>
<trkpt lat="35.86801" lon="138.74615"><ele>1158</ele><time>2019-08-11T22:22:22Z</time></trkpt>
<trkpt lat="35.868057" lon="138.74603"><ele>1158</ele><time>2019-08-11T22:22:37Z</time></trkpt>
<trkpt lat="35.868073" lon="138.74597"><ele>1157</ele><time>2019-08-11T22:22:52Z</time></trkpt>
<trkpt lat="35.86824" lon="138.7459"><ele>1157</ele><time>2019-08-11T22:23:07Z</time></trkpt>
<trkpt lat="35.868416" lon="138.74594"><ele>1166</ele><time>2019-08-11T22:23:23Z</time></trkpt>
<trkpt lat="35.86865" lon="138.7459"><ele>1166</ele><time>2019-08-11T22:23:39Z</time></trkpt>
<trkpt lat="35.86882" lon="138.74576"><ele>1162</ele><time>2019-08-11T22:23:55Z</time></trkpt>
<trkpt lat="35.868988" lon="138.7459"><ele>1168</ele><time>2019-08-11T22:24:10Z</time></trkpt>
<trkpt lat="35.86912" lon="138.74583"><ele>1159</ele><time>2019-08-11T22:24:25Z</time></trkpt>
<trkpt lat="35.869198" lon="138.74574"><ele>1165</ele><time>2019-08-11T22:24:40Z</time></trkpt>
<trkpt lat="35.869198" lon="138.74568"><ele>1177</ele><time>2019-08-11T22:25:25Z</time></trkpt>
<trkpt lat="35.86906" lon="138.74554"><ele>1167</ele><time>2019-08-11T22:25:57Z</time></trkpt>
<trkpt lat="35.86893" lon="138.74538"><ele>1162</ele><time>2019-08-11T22:26:12Z</time></trkpt>
<trkpt lat="35.868813" lon="138.74535"><ele>1165</ele><time>2019-08-11T22:26:27Z</time></trkpt>
<trkpt lat="35.868755" lon="138.74524"><ele>1164</ele><time>2019-08-11T22:26:42Z</time></trkpt>
<trkpt lat="35.86871" lon="138.7451"><ele>1166</ele><time>2019-08-11T22:26:57Z</time></trkpt>
<trkpt lat="35.868687" lon="138.745"><ele>1168</ele><time>2019-08-11T22:27:07Z</time></trkpt>
<trkpt lat="35.868675" lon="138.7448"><ele>1178</ele><time>2019-08-11T22:27:23Z</time></trkpt>
<trkpt lat="35.86867" lon="138.74469"><ele>1179</ele><time>2019-08-11T22:27:39Z</time></trkpt>
<trkpt lat="35.868713" lon="138.74467"><ele>1180</ele><time>2019-08-11T22:27:54Z</time></trkpt>
<trkpt lat="35.868786" lon="138.7446"><ele>1176</ele><time>2019-08-11T22:28:09Z</time></trkpt>
<trkpt lat="35.86885" lon="138.74455"><ele>1186</ele><time>2019-08-11T22:28:24Z</time></trkpt>
<trkpt lat="35.868973" lon="138.74445"><ele>1187</ele><time>2019-08-11T22:28:40Z</time></trkpt>
<trkpt lat="35.869007" lon="138.74434"><ele>1193</ele><time>2019-08-11T22:28:55Z</time></trkpt>
<trkpt lat="35.86902" lon="138.74425"><ele>1187</ele><time>2019-08-11T22:29:10Z</time></trkpt>
<trkpt lat="35.869053" lon="138.74416"><ele>1182</ele><time>2019-08-11T22:29:25Z</time></trkpt>
<trkpt lat="35.86911" lon="138.74402"><ele>1178</ele><time>2019-08-11T22:29:40Z</time></trkpt>
<trkpt lat="35.869213" lon="138.74384"><ele>1174</ele><time>2019-08-11T22:29:55Z</time></trkpt>
<trkpt lat="35.869316" lon="138.74374"><ele>1176</ele><time>2019-08-11T22:30:10Z</time></trkpt>
<trkpt lat="35.86938" lon="138.74359"><ele>1183</ele><time>2019-08-11T22:30:25Z</time></trkpt>
<trkpt lat="35.869537" lon="138.74345"><ele>1182</ele><time>2019-08-11T22:30:41Z</time></trkpt>
<trkpt lat="35.869656" lon="138.74329"><ele>1175</ele><time>2019-08-11T22:30:56Z</time></trkpt>
<trkpt lat="35.86975" lon="138.74303"><ele>1173</ele><time>2019-08-11T22:31:11Z</time></trkpt>
<trkpt lat="35.86989" lon="138.74287"><ele>1174</ele><time>2019-08-11T22:31:26Z</time></trkpt>
<trkpt lat="35.869987" lon="138.74268"><ele>1171</ele><time>2019-08-11T22:31:41Z</time></trkpt>
<trkpt lat="35.87008" lon="138.7425"><ele>1169</ele><time>2019-08-11T22:31:56Z</time></trkpt>
<trkpt lat="35.870144" lon="138.7423"><ele>1163</ele><time>2019-08-11T22:32:07Z</time></trkpt>
<trkpt lat="35.870274" lon="138.74213"><ele>1164</ele><time>2019-08-11T22:32:22Z</time></trkpt>
<trkpt lat="35.87038" lon="138.74202"><ele>1164</ele><time>2019-08-11T22:32:37Z</time></trkpt>
<trkpt lat="35.87041" lon="138.74197"><ele>1163</ele><time>2019-08-11T22:32:52Z</time></trkpt>
<trkpt lat="35.870396" lon="138.7417"><ele>1173</ele><time>2019-08-11T22:33:22Z</time></trkpt>
<trkpt lat="35.87042" lon="138.74164"><ele>1172</ele><time>2019-08-11T22:33:38Z</time></trkpt>
<trkpt lat="35.87034" lon="138.74149"><ele>1176</ele><time>2019-08-11T22:33:54Z</time></trkpt>
<trkpt lat="35.870327" lon="138.74136"><ele>1175</ele><time>2019-08-11T22:34:10Z</time></trkpt>
<trkpt lat="35.870327" lon="138.74129"><ele>1174</ele><time>2019-08-11T22:34:26Z</time></trkpt>
<trkpt lat="35.87026" lon="138.74118"><ele>1181</ele><time>2019-08-11T22:34:42Z</time></trkpt>
<trkpt lat="35.870213" lon="138.74112"><ele>1180</ele><time>2019-08-11T22:34:57Z</time></trkpt>
<trkpt lat="35.870193" lon="138.74106"><ele>1174</ele><time>2019-08-11T22:35:12Z</time></trkpt>
<trkpt lat="35.870174" lon="138.74101"><ele>1175</ele><time>2019-08-11T22:35:27Z</time></trkpt>
<trkpt lat="35.87012" lon="138.74095"><ele>1178</ele><time>2019-08-11T22:35:43Z</time></trkpt>
<trkpt lat="35.870113" lon="138.74092"><ele>1178</ele><time>2019-08-11T22:35:58Z</time></trkpt>
<trkpt lat="35.87003" lon="138.74086"><ele>1189</ele><time>2019-08-11T22:36:13Z</time></trkpt>
<trkpt lat="35.87003" lon="138.7408"><ele>1192</ele><time>2019-08-11T22:36:29Z</time></trkpt>
<trkpt lat="35.870068" lon="138.74065"><ele>1190</ele><time>2019-08-11T22:36:45Z</time></trkpt>
<trkpt lat="35.870056" lon="138.74052"><ele>1190</ele><time>2019-08-11T22:37:00Z</time></trkpt>
<trkpt lat="35.870064" lon="138.7405"><ele>1192</ele><time>2019-08-11T22:37:07Z</time></trkpt>
<trkpt lat="35.870026" lon="138.74039"><ele>1195</ele><time>2019-08-11T22:37:24Z</time></trkpt>
<trkpt lat="35.869946" lon="138.74025"><ele>1201</ele><time>2019-08-11T22:37:40Z</time></trkpt>
<trkpt lat="35.86991" lon="138.74022"><ele>1202</ele><time>2019-08-11T22:37:55Z</time></trkpt>
<trkpt lat="35.869812" lon="138.74013"><ele>1208</ele><time>2019-08-11T22:38:11Z</time></trkpt>
<trkpt lat="35.869656" lon="138.74002"><ele>1207</ele><time>2019-08-11T22:38:27Z</time></trkpt>
<trkpt lat="35.86952" lon="138.73988"><ele>1209</ele><time>2019-08-11T22:38:42Z</time></trkpt>
<trkpt lat="35.86936" lon="138.73982"><ele>1204</ele><time>2019-08-11T22:38:58Z</time></trkpt>
<trkpt lat="35.869244" lon="138.7398"><ele>1194</ele><time>2019-08-11T22:39:13Z</time></trkpt>
<trkpt lat="35.86913" lon="138.73975"><ele>1196</ele><time>2019-08-11T22:39:29Z</time></trkpt>
<trkpt lat="35.869064" lon="138.73964"><ele>1198</ele><time>2019-08-11T22:39:45Z</time></trkpt>
<trkpt lat="35.869003" lon="138.7396"><ele>1197</ele><time>2019-08-11T22:40:00Z</time></trkpt>
<trkpt lat="35.86896" lon="138.73958"><ele>1199</ele><time>2019-08-11T22:40:15Z</time></trkpt>
<trkpt lat="35.868793" lon="138.7396"><ele>1200</ele><time>2019-08-11T22:40:30Z</time></trkpt>
<trkpt lat="35.868717" lon="138.73965"><ele>1199</ele><time>2019-08-11T22:40:46Z</time></trkpt>
<trkpt lat="35.868675" lon="138.73972"><ele>1197</ele><time>2019-08-11T22:41:01Z</time></trkpt>
<trkpt lat="35.86851" lon="138.73973"><ele>1190</ele><time>2019-08-11T22:41:16Z</time></trkpt>
<trkpt lat="35.868458" lon="138.73972"><ele>1192</ele><time>2019-08-11T22:41:31Z</time></trkpt>
<trkpt lat="35.868427" lon="138.73975"><ele>1205</ele><time>2019-08-11T22:42:02Z</time></trkpt>
<trkpt lat="35.86845" lon="138.73973"><ele>1195</ele><time>2019-08-11T22:42:23Z</time></trkpt>
<trkpt lat="35.86845" lon="138.73976"><ele>1197</ele><time>2019-08-11T22:42:39Z</time></trkpt>
<trkpt lat="35.868443" lon="138.73976"><ele>1195</ele><time>2019-08-11T22:42:54Z</time></trkpt>
<trkpt lat="35.868298" lon="138.73969"><ele>1200</ele><time>2019-08-11T22:43:10Z</time></trkpt>
<trkpt lat="35.86826" lon="138.73964"><ele>1214</ele><time>2019-08-11T22:43:41Z</time></trkpt>
<trkpt lat="35.86816" lon="138.73964"><ele>1216</ele><time>2019-08-11T22:43:56Z</time></trkpt>
<trkpt lat="35.86804" lon="138.73956"><ele>1224</ele><time>2019-08-11T22:44:12Z</time></trkpt>
<trkpt lat="35.868008" lon="138.73943"><ele>1221</ele><time>2019-08-11T22:44:27Z</time></trkpt>
<trkpt lat="35.868" lon="138.73932"><ele>1221</ele><time>2019-08-11T22:44:43Z</time></trkpt>
<trkpt lat="35.86795" lon="138.73923"><ele>1223</ele><time>2019-08-11T22:44:58Z</time></trkpt>
<trkpt lat="35.86795" lon="138.7392"><ele>1222</ele><time>2019-08-11T22:45:29Z</time></trkpt>
<trkpt lat="35.868023" lon="138.73904"><ele>1218</ele><time>2019-08-11T22:45:44Z</time></trkpt>
<trkpt lat="35.86803" lon="138.73895"><ele>1225</ele><time>2019-08-11T22:45:59Z</time></trkpt>
<trkpt lat="35.868023" lon="138.739"><ele>1214</ele><time>2019-08-11T22:46:44Z</time></trkpt>
<trkpt lat="35.867977" lon="138.739"><ele>1209</ele><time>2019-08-11T22:46:59Z</time></trkpt>
<trkpt lat="35.86796" lon="138.73898"><ele>1212</ele><time>2019-08-11T22:47:08Z</time></trkpt>
<trkpt lat="35.86789" lon="138.73904"><ele>1209</ele><time>2019-08-11T22:47:23Z</time></trkpt>
<trkpt lat="35.86782" lon="138.73906"><ele>1215</ele><time>2019-08-11T22:47:55Z</time></trkpt>
<trkpt lat="35.867855" lon="138.73901"><ele>1219</ele><time>2019-08-11T22:48:27Z</time></trkpt>
<trkpt lat="35.867863" lon="138.739"><ele>1228</ele><time>2019-08-11T22:48:42Z</time></trkpt>
<trkpt lat="35.86795" lon="138.73895"><ele>1227</ele><time>2019-08-11T22:48:57Z</time></trkpt>
<trkpt lat="35.867954" lon="138.73895"><ele>1233</ele><time>2019-08-11T22:49:12Z</time></trkpt>
<trkpt lat="35.867985" lon="138.73895"><ele>1237</ele><time>2019-08-11T22:49:27Z</time></trkpt>
<trkpt lat="35.868076" lon="138.7389"><ele>1236</ele><time>2019-08-11T22:49:43Z</time></trkpt>
<trkpt lat="35.86809" lon="138.73888"><ele>1236</ele><time>2019-08-11T22:49:58Z</time></trkpt>
<trkpt lat="35.86808" lon="138.73886"><ele>1236</ele><time>2019-08-11T22:50:13Z</time></trkpt>
<trkpt lat="35.868084" lon="138.73885"><ele>1235</ele><time>2019-08-11T22:50:28Z</time></trkpt>
<trkpt lat="35.868153" lon="138.73859"><ele>1236</ele><time>2019-08-11T22:50:43Z</time></trkpt>
<trkpt lat="35.86812" lon="138.73854"><ele>1240</ele><time>2019-08-11T22:50:58Z</time></trkpt>
<trkpt lat="35.86813" lon="138.73848"><ele>1239</ele><time>2019-08-11T22:51:14Z</time></trkpt>
<trkpt lat="35.868183" lon="138.73845"><ele>1249</ele><time>2019-08-11T22:51:29Z</time></trkpt>
<trkpt lat="35.868183" lon="138.73845"><ele>1252</ele><time>2019-08-11T22:51:45Z</time></trkpt>
<trkpt lat="35.86812" lon="138.7384"><ele>1256</ele><time>2019-08-11T22:52:01Z</time></trkpt>
<trkpt lat="35.868034" lon="138.73839"><ele>1248</ele><time>2019-08-11T22:52:08Z</time></trkpt>
<trkpt lat="35.867954" lon="138.73833"><ele>1233</ele><time>2019-08-11T22:52:24Z</time></trkpt>
<trkpt lat="35.867905" lon="138.73828"><ele>1227</ele><time>2019-08-11T22:52:39Z</time></trkpt>
<trkpt lat="35.867813" lon="138.73825"><ele>1229</ele><time>2019-08-11T22:52:54Z</time></trkpt>
<trkpt lat="35.867645" lon="138.7383"><ele>1237</ele><time>2019-08-11T22:53:09Z</time></trkpt>
<trkpt lat="35.867626" lon="138.73833"><ele>1241</ele><time>2019-08-11T22:53:25Z</time></trkpt>
<trkpt lat="35.867615" lon="138.73833"><ele>1241</ele><time>2019-08-11T22:53:40Z</time></trkpt>
<trkpt lat="35.867508" lon="138.73836"><ele>1234</ele><time>2019-08-11T22:53:55Z</time></trkpt>
<trkpt lat="35.867332" lon="138.73839"><ele>1217</ele><time>2019-08-11T22:54:11Z</time></trkpt>
<trkpt lat="35.867283" lon="138.7383"><ele>1210</ele><time>2019-08-11T22:54:26Z</time></trkpt>
<trkpt lat="35.86728" lon="138.7383"><ele>1210</ele><time>2019-08-11T22:54:41Z</time></trkpt>
<trkpt lat="35.867157" lon="138.73819"><ele>1196</ele><time>2019-08-11T22:54:56Z</time></trkpt>
<trkpt lat="35.866974" lon="138.7381"><ele>1189</ele><time>2019-08-11T22:55:11Z</time></trkpt>
<trkpt lat="35.86693" lon="138.73795"><ele>1183</ele><time>2019-08-11T22:55:26Z</time></trkpt>
<trkpt lat="35.866962" lon="138.73788"><ele>1186</ele><time>2019-08-11T22:55:41Z</time></trkpt>
<trkpt lat="35.866962" lon="138.73782"><ele>1191</ele><time>2019-08-11T22:55:56Z</time></trkpt>
<trkpt lat="35.866962" lon="138.73781"><ele>1191</ele><time>2019-08-11T22:56:12Z</time></trkpt>
<trkpt lat="35.866974" lon="138.7378"><ele>1195</ele><time>2019-08-11T22:56:42Z</time></trkpt>
<trkpt lat="35.86698" lon="138.7376"><ele>1192</ele><time>2019-08-11T22:56:58Z</time></trkpt>
<trkpt lat="35.86699" lon="138.73756"><ele>1196</ele><time>2019-08-11T22:57:08Z</time></trkpt>
<trkpt lat="35.867092" lon="138.73738"><ele>1202</ele><time>2019-08-11T22:57:24Z</time></trkpt>
<trkpt lat="35.867115" lon="138.7373"><ele>1213</ele><time>2019-08-11T22:57:39Z</time></trkpt>
<trkpt lat="35.867123" lon="138.73729"><ele>1213</ele><time>2019-08-11T22:58:24Z</time></trkpt>
<trkpt lat="35.867012" lon="138.73726"><ele>1242</ele><time>2019-08-11T22:59:25Z</time></trkpt>
<trkpt lat="35.86694" lon="138.73721"><ele>1235</ele><time>2019-08-11T22:59:40Z</time></trkpt>
<trkpt lat="35.866783" lon="138.7371"><ele>1239</ele><time>2019-08-11T23:00:11Z</time></trkpt>
<trkpt lat="35.866627" lon="138.7371"><ele>1236</ele><time>2019-08-11T23:00:26Z</time></trkpt>
<trkpt lat="35.866573" lon="138.73715"><ele>1246</ele><time>2019-08-11T23:00:42Z</time></trkpt>
<trkpt lat="35.86646" lon="138.73729"><ele>1256</ele><time>2019-08-11T23:00:57Z</time></trkpt>
<trkpt lat="35.866364" lon="138.73727"><ele>1254</ele><time>2019-08-11T23:01:13Z</time></trkpt>
<trkpt lat="35.8662" lon="138.73729"><ele>1246</ele><time>2019-08-11T23:01:28Z</time></trkpt>
<trkpt lat="35.866077" lon="138.73682"><ele>1227</ele><time>2019-08-11T23:01:44Z</time></trkpt>
<trkpt lat="35.86605" lon="138.73677"><ele>1210</ele><time>2019-08-11T23:02:39Z</time></trkpt>
<trkpt lat="35.866085" lon="138.73686"><ele>1218</ele><time>2019-08-11T23:03:09Z</time></trkpt>
<trkpt lat="35.86594" lon="138.73674"><ele>1195</ele><time>2019-08-11T23:03:41Z</time></trkpt>
<trkpt lat="35.86605" lon="138.73653"><ele>1200</ele><time>2019-08-11T23:03:57Z</time></trkpt>
<trkpt lat="35.86618" lon="138.73628"><ele>1206</ele><time>2019-08-11T23:04:12Z</time></trkpt>
<trkpt lat="35.866165" lon="138.73613"><ele>1221</ele><time>2019-08-11T23:04:27Z</time></trkpt>
<trkpt lat="35.866264" lon="138.73582"><ele>1235</ele><time>2019-08-11T23:04:42Z</time></trkpt>
<trkpt lat="35.866272" lon="138.73581"><ele>1236</ele><time>2019-08-11T23:04:58Z</time></trkpt>
<trkpt lat="35.86634" lon="138.73561"><ele>1241</ele><time>2019-08-11T23:05:28Z</time></trkpt>
<trkpt lat="35.86638" lon="138.73563"><ele>1244</ele><time>2019-08-11T23:05:44Z</time></trkpt>
<trkpt lat="35.866417" lon="138.73557"><ele>1257</ele><time>2019-08-11T23:05:59Z</time></trkpt>
<trkpt lat="35.86648" lon="138.73558"><ele>1265</ele><time>2019-08-11T23:06:14Z</time></trkpt>
<trkpt lat="35.866524" lon="138.73544"><ele>1264</ele><time>2019-08-11T23:06:29Z</time></trkpt>
<trkpt lat="35.86657" lon="138.73535"><ele>1271</ele><time>2019-08-11T23:06:45Z</time></trkpt>
<trkpt lat="35.86661" lon="138.73523"><ele>1279</ele><time>2019-08-11T23:07:00Z</time></trkpt>
<trkpt lat="35.866695" lon="138.73521"><ele>1285</ele><time>2019-08-11T23:07:09Z</time></trkpt>
<trkpt lat="35.866817" lon="138.73529"><ele>1288</ele><time>2019-08-11T23:07:24Z</time></trkpt>
<trkpt lat="35.86691" lon="138.73535"><ele>1287</ele><time>2019-08-11T23:07:40Z</time></trkpt>
<trkpt lat="35.86695" lon="138.73544"><ele>1278</ele><time>2019-08-11T23:07:55Z</time></trkpt>
<trkpt lat="35.86701" lon="138.73555"><ele>1262</ele><time>2019-08-11T23:08:10Z</time></trkpt>
<trkpt lat="35.86715" lon="138.73563"><ele>1247</ele><time>2019-08-11T23:08:57Z</time></trkpt>
<trkpt lat="35.867226" lon="138.73563"><ele>1235</ele><time>2019-08-11T23:09:12Z</time></trkpt>
<trkpt lat="35.86726" lon="138.73566"><ele>1231</ele><time>2019-08-11T23:09:27Z</time></trkpt>
<trkpt lat="35.86735" lon="138.73566"><ele>1235</ele><time>2019-08-11T23:09:42Z</time></trkpt>
<trkpt lat="35.867474" lon="138.7357"><ele>1239</ele><time>2019-08-11T23:10:14Z</time></trkpt>
<trkpt lat="35.867523" lon="138.73576"><ele>1244</ele><time>2019-08-11T23:10:30Z</time></trkpt>
<trkpt lat="35.867603" lon="138.73578"><ele>1247</ele><time>2019-08-11T23:10:45Z</time></trkpt>
<trkpt lat="35.867664" lon="138.7357"><ele>1246</ele><time>2019-08-11T23:11:00Z</time></trkpt>
<trkpt lat="35.86776" lon="138.73566"><ele>1249</ele><time>2019-08-11T23:11:16Z</time></trkpt>
<trkpt lat="35.867798" lon="138.73564"><ele>1252</ele><time>2019-08-11T23:11:31Z</time></trkpt>
<trkpt lat="35.867817" lon="138.7355"><ele>1260</ele><time>2019-08-11T23:11:46Z</time></trkpt>
<trkpt lat="35.867798" lon="138.73543"><ele>1265</ele><time>2019-08-11T23:12:01Z</time></trkpt>
<trkpt lat="35.867805" lon="138.73541"><ele>1267</ele><time>2019-08-11T23:12:09Z</time></trkpt>
<trkpt lat="35.86784" lon="138.7352"><ele>1288</ele><time>2019-08-11T23:12:25Z</time></trkpt>
<trkpt lat="35.867855" lon="138.73492"><ele>1279</ele><time>2019-08-11T23:12:40Z</time></trkpt>
<trkpt lat="35.86778" lon="138.73477"><ele>1277</ele><time>2019-08-11T23:12:55Z</time></trkpt>
<trkpt lat="35.867805" lon="138.73474"><ele>1272</ele><time>2019-08-11T23:13:10Z</time></trkpt>
<trkpt lat="35.86779" lon="138.7347"><ele>1273</ele><time>2019-08-11T23:13:25Z</time></trkpt>
<trkpt lat="35.86776" lon="138.73454"><ele>1274</ele><time>2019-08-11T23:13:40Z</time></trkpt>
<trkpt lat="35.867775" lon="138.73427"><ele>1264</ele><time>2019-08-11T23:13:55Z</time></trkpt>
<trkpt lat="35.867786" lon="138.73415"><ele>1263</ele><time>2019-08-11T23:14:10Z</time></trkpt>
<trkpt lat="35.8678" lon="138.73409"><ele>1268</ele><time>2019-08-11T23:14:25Z</time></trkpt>
<trkpt lat="35.867744" lon="138.73401"><ele>1269</ele><time>2019-08-11T23:14:56Z</time></trkpt>
<trkpt lat="35.867874" lon="138.73392"><ele>1267</ele><time>2019-08-11T23:15:12Z</time></trkpt>
<trkpt lat="35.867825" lon="138.73361"><ele>1285</ele><time>2019-08-11T23:15:57Z</time></trkpt>
<trkpt lat="35.86794" lon="138.73352"><ele>1290</ele><time>2019-08-11T23:16:13Z</time></trkpt>
<trkpt lat="35.86789" lon="138.7334"><ele>1293</ele><time>2019-08-11T23:16:29Z</time></trkpt>
<trkpt lat="35.86785" lon="138.73332"><ele>1294</ele><time>2019-08-11T23:16:44Z</time></trkpt>
<trkpt lat="35.867687" lon="138.73308"><ele>1293</ele><time>2019-08-11T23:16:59Z</time></trkpt>
<trkpt lat="35.867645" lon="138.733"><ele>1290</ele><time>2019-08-11T23:17:10Z</time></trkpt>
<trkpt lat="35.867634" lon="138.733"><ele>1291</ele><time>2019-08-11T23:17:25Z</time></trkpt>
<trkpt lat="35.867626" lon="138.7328"><ele>1288</ele><time>2019-08-11T23:17:40Z</time></trkpt>
<trkpt lat="35.867584" lon="138.7327"><ele>1281</ele><time>2019-08-11T23:17:55Z</time></trkpt>
<trkpt lat="35.86755" lon="138.7327"><ele>1288</ele><time>2019-08-11T23:18:10Z</time></trkpt>
<trkpt lat="35.86743" lon="138.73283"><ele>1290</ele><time>2019-08-11T23:18:25Z</time></trkpt>
<trkpt lat="35.867374" lon="138.73285"><ele>1287</ele><time>2019-08-11T23:18:57Z</time></trkpt>
<trkpt lat="35.867264" lon="138.73283"><ele>1292</ele><time>2019-08-11T23:19:27Z</time></trkpt>
<trkpt lat="35.867107" lon="138.73277"><ele>1287</ele><time>2019-08-11T23:19:43Z</time></trkpt>
<trkpt lat="35.8669" lon="138.73291"><ele>1294</ele><time>2019-08-11T23:19:58Z</time></trkpt>
<trkpt lat="35.866783" lon="138.73277"><ele>1302</ele><time>2019-08-11T23:20:13Z</time></trkpt>
<trkpt lat="35.86675" lon="138.7327"><ele>1311</ele><time>2019-08-11T23:20:28Z</time></trkpt>
<trkpt lat="35.86665" lon="138.73267"><ele>1304</ele><time>2019-08-11T23:20:43Z</time></trkpt>
<trkpt lat="35.86656" lon="138.73259"><ele>1302</ele><time>2019-08-11T23:20:58Z</time></trkpt>
<trkpt lat="35.866596" lon="138.73254"><ele>1305</ele><time>2019-08-11T23:21:13Z</time></trkpt>
<trkpt lat="35.866535" lon="138.73254"><ele>1314</ele><time>2019-08-11T23:21:45Z</time></trkpt>
<trkpt lat="35.866352" lon="138.73225"><ele>1332</ele><time>2019-08-11T23:22:40Z</time></trkpt>
<trkpt lat="35.866295" lon="138.73215"><ele>1334</ele><time>2019-08-11T23:22:55Z</time></trkpt>
<trkpt lat="35.866238" lon="138.73213"><ele>1339</ele><time>2019-08-11T23:23:10Z</time></trkpt>
<trkpt lat="35.86601" lon="138.73235"><ele>1346</ele><time>2019-08-11T23:23:26Z</time></trkpt>
<trkpt lat="35.86578" lon="138.7325"><ele>1362</ele><time>2019-08-11T23:23:57Z</time></trkpt>
<trkpt lat="35.86564" lon="138.73245"><ele>1363</ele><time>2019-08-11T23:24:13Z</time></trkpt>
<trkpt lat="35.865517" lon="138.73242"><ele>1358</ele><time>2019-08-11T23:24:28Z</time></trkpt>
<trkpt lat="35.865486" lon="138.7324"><ele>1358</ele><time>2019-08-11T23:24:43Z</time></trkpt>
<trkpt lat="35.865295" lon="138.73257"><ele>1363</ele><time>2019-08-11T23:24:58Z</time></trkpt>
<trkpt lat="35.86516" lon="138.73264"><ele>1361</ele><time>2019-08-11T23:25:13Z</time></trkpt>
<trkpt lat="35.86508" lon="138.73259"><ele>1357</ele><time>2019-08-11T23:25:43Z</time></trkpt>
<trkpt lat="35.86498" lon="138.73247"><ele>1308</ele><time>2019-08-11T23:26:30Z</time></trkpt>
<trkpt lat="35.864998" lon="138.73257"><ele>1321</ele><time>2019-08-11T23:27:00Z</time></trkpt>
<trkpt lat="35.86494" lon="138.73256"><ele>1318</ele><time>2019-08-11T23:27:10Z</time></trkpt>
<trkpt lat="35.86492" lon="138.73254"><ele>1326</ele><time>2019-08-11T23:27:26Z</time></trkpt>
<trkpt lat="35.86491" lon="138.73254"><ele>1325</ele><time>2019-08-11T23:27:41Z</time></trkpt>
<trkpt lat="35.864845" lon="138.73253"><ele>1321</ele><time>2019-08-11T23:27:57Z</time></trkpt>
<trkpt lat="35.86477" lon="138.73253"><ele>1319</ele><time>2019-08-11T23:28:12Z</time></trkpt>
<trkpt lat="35.864754" lon="138.73248"><ele>1314</ele><time>2019-08-11T23:28:28Z</time></trkpt>
<trkpt lat="35.864674" lon="138.73247"><ele>1306</ele><time>2019-08-11T23:28:44Z</time></trkpt>
<trkpt lat="35.86455" lon="138.73254"><ele>1301</ele><time>2019-08-11T23:28:59Z</time></trkpt>
<trkpt lat="35.86452" lon="138.73257"><ele>1298</ele><time>2019-08-11T23:29:14Z</time></trkpt>
<trkpt lat="35.864487" lon="138.7326"><ele>1305</ele><time>2019-08-11T23:29:30Z</time></trkpt>
<trkpt lat="35.864513" lon="138.73259"><ele>1309</ele><time>2019-08-11T23:30:15Z</time></trkpt>
<trkpt lat="35.86451" lon="138.73257"><ele>1310</ele><time>2019-08-11T23:30:30Z</time></trkpt>
<trkpt lat="35.864483" lon="138.73239"><ele>1327</ele><time>2019-08-11T23:31:17Z</time></trkpt>
<trkpt lat="35.864464" lon="138.73221"><ele>1327</ele><time>2019-08-11T23:31:32Z</time></trkpt>
<trkpt lat="35.864487" lon="138.73215"><ele>1318</ele><time>2019-08-11T23:31:47Z</time></trkpt>
<trkpt lat="35.86442" lon="138.7321"><ele>1320</ele><time>2019-08-11T23:32:27Z</time></trkpt>
<trkpt lat="35.86439" lon="138.73212"><ele>1321</ele><time>2019-08-11T23:32:43Z</time></trkpt>
<trkpt lat="35.86439" lon="138.73212"><ele>1322</ele><time>2019-08-11T23:32:59Z</time></trkpt>
<trkpt lat="35.864357" lon="138.73198"><ele>1318</ele><time>2019-08-11T23:33:14Z</time></trkpt>
<trkpt lat="35.864326" lon="138.73196"><ele>1342</ele><time>2019-08-11T23:33:44Z</time></trkpt>
<trkpt lat="35.86453" lon="138.73204"><ele>1359</ele><time>2019-08-11T23:33:59Z</time></trkpt>
<trkpt lat="35.864693" lon="138.73193"><ele>1361</ele><time>2019-08-11T23:34:15Z</time></trkpt>
<trkpt lat="35.864693" lon="138.73192"><ele>1361</ele><time>2019-08-11T23:34:45Z</time></trkpt>
<trkpt lat="35.864834" lon="138.73163"><ele>1360</ele><time>2019-08-11T23:35:01Z</time></trkpt>
<trkpt lat="35.864826" lon="138.73155"><ele>1360</ele><time>2019-08-11T23:35:17Z</time></trkpt>
<trkpt lat="35.864853" lon="138.73149"><ele>1355</ele><time>2019-08-11T23:35:32Z</time></trkpt>
<trkpt lat="35.864872" lon="138.73135"><ele>1353</ele><time>2019-08-11T23:35:48Z</time></trkpt>
<trkpt lat="35.864864" lon="138.7313"><ele>1358</ele><time>2019-08-11T23:36:03Z</time></trkpt>
<trkpt lat="35.864838" lon="138.73108"><ele>1350</ele><time>2019-08-11T23:36:18Z</time></trkpt>
<trkpt lat="35.864765" lon="138.7309"><ele>1342</ele><time>2019-08-11T23:36:34Z</time></trkpt>
<trkpt lat="35.864708" lon="138.73071"><ele>1338</ele><time>2019-08-11T23:36:50Z</time></trkpt>
<trkpt lat="35.864628" lon="138.73062"><ele>1334</ele><time>2019-08-11T23:37:05Z</time></trkpt>
<trkpt lat="35.864605" lon="138.7306"><ele>1334</ele><time>2019-08-11T23:37:11Z</time></trkpt>
<trkpt lat="35.86459" lon="138.73056"><ele>1335</ele><time>2019-08-11T23:37:26Z</time></trkpt>
<trkpt lat="35.86457" lon="138.73056"><ele>1337</ele><time>2019-08-11T23:37:56Z</time></trkpt>
<trkpt lat="35.86457" lon="138.73056"><ele>1337</ele><time>2019-08-11T23:38:12Z</time></trkpt>
<trkpt lat="35.86457" lon="138.73058"><ele>1338</ele><time>2019-08-11T23:38:28Z</time></trkpt>
<trkpt lat="35.864574" lon="138.73062"><ele>1343</ele><time>2019-08-11T23:39:14Z</time></trkpt>
<trkpt lat="35.86462" lon="138.73068"><ele>1339</ele><time>2019-08-11T23:39:30Z</time></trkpt>
<trkpt lat="35.86458" lon="138.73083"><ele>1338</ele><time>2019-08-11T23:39:46Z</time></trkpt>
<trkpt lat="35.864605" lon="138.73091"><ele>1336</ele><time>2019-08-11T23:40:02Z</time></trkpt>
<trkpt lat="35.864605" lon="138.73099"><ele>1336</ele><time>2019-08-11T23:40:17Z</time></trkpt>
<trkpt lat="35.86447" lon="138.73112"><ele>1346</ele><time>2019-08-11T23:40:32Z</time></trkpt>
<trkpt lat="35.86446" lon="138.73117"><ele>1355</ele><time>2019-08-11T23:41:03Z</time></trkpt>
<trkpt lat="35.864464" lon="138.73117"><ele>1355</ele><time>2019-08-11T23:41:18Z</time></trkpt>
<trkpt lat="35.864464" lon="138.73119"><ele>1355</ele><time>2019-08-11T23:41:33Z</time></trkpt>
<trkpt lat="35.86441" lon="138.7311"><ele>1365</ele><time>2019-08-11T23:42:26Z</time></trkpt>
<trkpt lat="35.864307" lon="138.73103"><ele>1363</ele><time>2019-08-11T23:42:41Z</time></trkpt>
<trkpt lat="35.86423" lon="138.731"><ele>1364</ele><time>2019-08-11T23:42:56Z</time></trkpt>
<trkpt lat="35.864174" lon="138.73099"><ele>1371</ele><time>2019-08-11T23:43:11Z</time></trkpt>
<trkpt lat="35.864113" lon="138.73099"><ele>1372</ele><time>2019-08-11T23:43:27Z</time></trkpt>
<trkpt lat="35.864063" lon="138.73102"><ele>1373</ele><time>2019-08-11T23:43:42Z</time></trkpt>
<trkpt lat="35.86389" lon="138.73105"><ele>1379</ele><time>2019-08-11T23:44:29Z</time></trkpt>
<trkpt lat="35.86376" lon="138.7311"><ele>1383</ele><time>2019-08-11T23:44:44Z</time></trkpt>
<trkpt lat="35.8637" lon="138.73112"><ele>1390</ele><time>2019-08-11T23:44:59Z</time></trkpt>
<trkpt lat="35.863686" lon="138.73114"><ele>1392</ele><time>2019-08-11T23:45:14Z</time></trkpt>
<trkpt lat="35.86367" lon="138.73114"><ele>1395</ele><time>2019-08-11T23:46:15Z</time></trkpt>
<trkpt lat="35.863674" lon="138.73111"><ele>1387</ele><time>2019-08-11T23:46:30Z</time></trkpt>
<trkpt lat="35.863735" lon="138.731"><ele>1389</ele><time>2019-08-11T23:46:45Z</time></trkpt>
<trkpt lat="35.86376" lon="138.73097"><ele>1391</ele><time>2019-08-11T23:47:00Z</time></trkpt>
<trkpt lat="35.86376" lon="138.73097"><ele>1391</ele><time>2019-08-11T23:47:12Z</time></trkpt>
<trkpt lat="35.86376" lon="138.73097"><ele>1391</ele><time>2019-08-11T23:47:28Z</time></trkpt>
<trkpt lat="35.86373" lon="138.73096"><ele>1387</ele><time>2019-08-11T23:47:43Z</time></trkpt>
<trkpt lat="35.863728" lon="138.73094"><ele>1386</ele><time>2019-08-11T23:47:59Z</time></trkpt>
<trkpt lat="35.863728" lon="138.73094"><ele>1385</ele><time>2019-08-11T23:48:15Z</time></trkpt>
<trkpt lat="35.863754" lon="138.73091"><ele>1385</ele><time>2019-08-11T23:48:30Z</time></trkpt>
<trkpt lat="35.863766" lon="138.73091"><ele>1388</ele><time>2019-08-11T23:48:46Z</time></trkpt>
<trkpt lat="35.863766" lon="138.73091"><ele>1388</ele><time>2019-08-11T23:49:01Z</time></trkpt>
<trkpt lat="35.86377" lon="138.73091"><ele>1388</ele><time>2019-08-11T23:49:16Z</time></trkpt>
<trkpt lat="35.86377" lon="138.73091"><ele>1388</ele><time>2019-08-11T23:49:31Z</time></trkpt>
<trkpt lat="35.86377" lon="138.73091"><ele>1388</ele><time>2019-08-11T23:49:46Z</time></trkpt>
<trkpt lat="35.86377" lon="138.73091"><ele>1388</ele><time>2019-08-11T23:50:02Z</time></trkpt>
<trkpt lat="35.86377" lon="138.73091"><ele>1388</ele><time>2019-08-11T23:50:18Z</time></trkpt>
<trkpt lat="35.86377" lon="138.73091"><ele>1388</ele><time>2019-08-11T23:50:33Z</time></trkpt>
<trkpt lat="35.86379" lon="138.7309"><ele>1387</ele><time>2019-08-11T23:50:48Z</time></trkpt>
<trkpt lat="35.86377" lon="138.73099"><ele>1394</ele><time>2019-08-11T23:51:18Z</time></trkpt>
<trkpt lat="35.86367" lon="138.73112"><ele>1402</ele><time>2019-08-11T23:51:33Z</time></trkpt>
<trkpt lat="35.863598" lon="138.73128"><ele>1396</ele><time>2019-08-11T23:51:48Z</time></trkpt>
<trkpt lat="35.8635" lon="138.73141"><ele>1394</ele><time>2019-08-11T23:52:03Z</time></trkpt>
<trkpt lat="35.863422" lon="138.73152"><ele>1391</ele><time>2019-08-11T23:52:12Z</time></trkpt>
<trkpt lat="35.863216" lon="138.73157"><ele>1387</ele><time>2019-08-11T23:52:28Z</time></trkpt>
<trkpt lat="35.86308" lon="138.73163"><ele>1396</ele><time>2019-08-11T23:52:44Z</time></trkpt>
<trkpt lat="35.863014" lon="138.73166"><ele>1398</ele><time>2019-08-11T23:53:00Z</time></trkpt>
<trkpt lat="35.862885" lon="138.73174"><ele>1404</ele><time>2019-08-11T23:53:15Z</time></trkpt>
<trkpt lat="35.86286" lon="138.73181"><ele>1403</ele><time>2019-08-11T23:53:30Z</time></trkpt>
<trkpt lat="35.862766" lon="138.73196"><ele>1401</ele><time>2019-08-11T23:53:45Z</time></trkpt>
<trkpt lat="35.862823" lon="138.73204"><ele>1397</ele><time>2019-08-11T23:54:00Z</time></trkpt>
<trkpt lat="35.86292" lon="138.73216"><ele>1404</ele><time>2019-08-11T23:54:15Z</time></trkpt>
<trkpt lat="35.86297" lon="138.7322"><ele>1402</ele><time>2019-08-11T23:54:31Z</time></trkpt>
<trkpt lat="35.863" lon="138.73227"><ele>1399</ele><time>2019-08-11T23:54:46Z</time></trkpt>
<trkpt lat="35.863194" lon="138.73239"><ele>1392</ele><time>2019-08-11T23:55:02Z</time></trkpt>
<trkpt lat="35.863396" lon="138.73251"><ele>1393</ele><time>2019-08-11T23:55:18Z</time></trkpt>
<trkpt lat="35.86353" lon="138.7326"><ele>1394</ele><time>2019-08-11T23:55:33Z</time></trkpt>
<trkpt lat="35.863647" lon="138.73265"><ele>1396</ele><time>2019-08-11T23:55:48Z</time></trkpt>
<trkpt lat="35.863827" lon="138.73273"><ele>1393</ele><time>2019-08-11T23:56:03Z</time></trkpt>
<trkpt lat="35.8639" lon="138.73279"><ele>1396</ele><time>2019-08-11T23:56:18Z</time></trkpt>
<trkpt lat="35.864002" lon="138.7329"><ele>1394</ele><time>2019-08-11T23:56:34Z</time></trkpt>
<trkpt lat="35.86407" lon="138.73311"><ele>1374</ele><time>2019-08-11T23:56:50Z</time></trkpt>
<trkpt lat="35.86411" lon="138.73311"><ele>1374</ele><time>2019-08-11T23:57:05Z</time></trkpt>
<trkpt lat="35.864155" lon="138.7332"><ele>1378</ele><time>2019-08-11T23:57:28Z</time></trkpt>
<trkpt lat="35.86425" lon="138.73326"><ele>1379</ele><time>2019-08-11T23:57:43Z</time></trkpt>
<trkpt lat="35.86433" lon="138.73332"><ele>1380</ele><time>2019-08-11T23:57:59Z</time></trkpt>
<trkpt lat="35.864426" lon="138.73335"><ele>1380</ele><time>2019-08-11T23:58:14Z</time></trkpt>
<trkpt lat="35.864674" lon="138.73344"><ele>1381</ele><time>2019-08-11T23:58:30Z</time></trkpt>
<trkpt lat="35.864834" lon="138.7335"><ele>1381</ele><time>2019-08-11T23:58:45Z</time></trkpt>
<trkpt lat="35.864998" lon="138.73354"><ele>1384</ele><time>2019-08-11T23:59:00Z</time></trkpt>
<trkpt lat="35.865063" lon="138.73354"><ele>1380</ele><time>2019-08-11T23:59:15Z</time></trkpt>
<trkpt lat="35.865257" lon="138.73344"><ele>1385</ele><time>2019-08-11T23:59:30Z</time></trkpt>
<trkpt lat="35.865417" lon="138.73332"><ele>1389</ele><time>2019-08-11T23:59:46Z</time></trkpt>
<trkpt lat="35.86558" lon="138.7333"><ele>1384</ele><time>2019-08-12T00:00:01Z</time></trkpt>
<trkpt lat="35.865887" lon="138.73328"><ele>1373</ele><time>2019-08-12T00:00:17Z</time></trkpt>
<trkpt lat="35.86605" lon="138.73344"><ele>1372</ele><time>2019-08-12T00:00:33Z</time></trkpt>
<trkpt lat="35.86613" lon="138.73358"><ele>1374</ele><time>2019-08-12T00:00:48Z</time></trkpt>
<trkpt lat="35.86622" lon="138.7337"><ele>1374</ele><time>2019-08-12T00:01:04Z</time></trkpt>
<trkpt lat="35.86638" lon="138.73375"><ele>1374</ele><time>2019-08-12T00:01:19Z</time></trkpt>
<trkpt lat="35.86657" lon="138.73387"><ele>1372</ele><time>2019-08-12T00:01:35Z</time></trkpt>
<trkpt lat="35.86665" lon="138.73401"><ele>1359</ele><time>2019-08-12T00:02:05Z</time></trkpt>
<trkpt lat="35.866623" lon="138.7341"><ele>1356</ele><time>2019-08-12T00:02:28Z</time></trkpt>
<trkpt lat="35.86656" lon="138.73416"><ele>1362</ele><time>2019-08-12T00:02:43Z</time></trkpt>
<trkpt lat="35.86648" lon="138.73422"><ele>1356</ele><time>2019-08-12T00:02:58Z</time></trkpt>
<trkpt lat="35.866447" lon="138.73422"><ele>1357</ele><time>2019-08-12T00:03:13Z</time></trkpt>
<trkpt lat="35.866234" lon="138.73424"><ele>1350</ele><time>2019-08-12T00:03:28Z</time></trkpt>
<trkpt lat="35.866135" lon="138.73425"><ele>1355</ele><time>2019-08-12T00:03:44Z</time></trkpt>
<trkpt lat="35.865932" lon="138.73431"><ele>1351</ele><time>2019-08-12T00:03:59Z</time></trkpt>
<trkpt lat="35.865715" lon="138.73433"><ele>1350</ele><time>2019-08-12T00:04:14Z</time></trkpt>
<trkpt lat="35.865646" lon="138.73442"><ele>1350</ele><time>2019-08-12T00:04:29Z</time></trkpt>
<trkpt lat="35.865486" lon="138.73482"><ele>1352</ele><time>2019-08-12T00:05:14Z</time></trkpt>
<trkpt lat="35.86545" lon="138.73503"><ele>1361</ele><time>2019-08-12T00:05:30Z</time></trkpt>
<trkpt lat="35.865376" lon="138.73514"><ele>1357</ele><time>2019-08-12T00:05:45Z</time></trkpt>
<trkpt lat="35.865223" lon="138.73535"><ele>1348</ele><time>2019-08-12T00:06:00Z</time></trkpt>
<trkpt lat="35.86516" lon="138.73552"><ele>1350</ele><time>2019-08-12T00:06:15Z</time></trkpt>
<trkpt lat="35.86522" lon="138.73572"><ele>1350</ele><time>2019-08-12T00:06:31Z</time></trkpt>
<trkpt lat="35.865185" lon="138.7359"><ele>1348</ele><time>2019-08-12T00:06:46Z</time></trkpt>
<trkpt lat="35.86493" lon="138.7361"><ele>1344</ele><time>2019-08-12T00:07:02Z</time></trkpt>
<trkpt lat="35.864845" lon="138.73611"><ele>1339</ele><time>2019-08-12T00:07:13Z</time></trkpt>
<trkpt lat="35.864834" lon="138.73622"><ele>1342</ele><time>2019-08-12T00:07:28Z</time></trkpt>
<trkpt lat="35.864845" lon="138.73642"><ele>1348</ele><time>2019-08-12T00:07:44Z</time></trkpt>
<trkpt lat="35.864902" lon="138.73648"><ele>1349</ele><time>2019-08-12T00:08:00Z</time></trkpt>
<trkpt lat="35.86492" lon="138.73648"><ele>1351</ele><time>2019-08-12T00:08:15Z</time></trkpt>
<trkpt lat="35.864983" lon="138.73663"><ele>1357</ele><time>2019-08-12T00:08:30Z</time></trkpt>
<trkpt lat="35.865074" lon="138.73679"><ele>1357</ele><time>2019-08-12T00:08:45Z</time></trkpt>
<trkpt lat="35.86519" lon="138.73706"><ele>1345</ele><time>2019-08-12T00:09:00Z</time></trkpt>
<trkpt lat="35.865265" lon="138.7372"><ele>1345</ele><time>2019-08-12T00:09:15Z</time></trkpt>
<trkpt lat="35.865356" lon="138.7374"><ele>1351</ele><time>2019-08-12T00:09:31Z</time></trkpt>
<trkpt lat="35.865494" lon="138.73749"><ele>1347</ele><time>2019-08-12T00:09:46Z</time></trkpt>
<trkpt lat="35.86562" lon="138.73767"><ele>1340</ele><time>2019-08-12T00:10:01Z</time></trkpt>
<trkpt lat="35.86573" lon="138.73793"><ele>1335</ele><time>2019-08-12T00:10:16Z</time></trkpt>
<trkpt lat="35.86575" lon="138.73817"><ele>1335</ele><time>2019-08-12T00:10:31Z</time></trkpt>
<trkpt lat="35.86576" lon="138.73837"><ele>1338</ele><time>2019-08-12T00:10:47Z</time></trkpt>
<trkpt lat="35.86587" lon="138.7385"><ele>1342</ele><time>2019-08-12T00:11:03Z</time></trkpt>
<trkpt lat="35.8659" lon="138.73871"><ele>1332</ele><time>2019-08-12T00:11:18Z</time></trkpt>
<trkpt lat="35.866016" lon="138.7389"><ele>1323</ele><time>2019-08-12T00:11:33Z</time></trkpt>
<trkpt lat="35.86605" lon="138.73898"><ele>1324</ele><time>2019-08-12T00:11:49Z</time></trkpt>
<trkpt lat="35.86609" lon="138.73901"><ele>1325</ele><time>2019-08-12T00:12:05Z</time></trkpt>
<trkpt lat="35.866093" lon="138.73901"><ele>1326</ele><time>2019-08-12T00:12:13Z</time></trkpt>
<trkpt lat="35.8661" lon="138.73903"><ele>1324</ele><time>2019-08-12T00:12:28Z</time></trkpt>
<trkpt lat="35.8661" lon="138.73903"><ele>1323</ele><time>2019-08-12T00:12:44Z</time></trkpt>
<trkpt lat="35.866093" lon="138.739"><ele>1324</ele><time>2019-08-12T00:13:16Z</time></trkpt>
<trkpt lat="35.866093" lon="138.739"><ele>1324</ele><time>2019-08-12T00:13:31Z</time></trkpt>
<trkpt lat="35.866093" lon="138.739"><ele>1324</ele><time>2019-08-12T00:13:47Z</time></trkpt>
<trkpt lat="35.86609" lon="138.739"><ele>1324</ele><time>2019-08-12T00:14:02Z</time></trkpt>
<trkpt lat="35.86609" lon="138.739"><ele>1324</ele><time>2019-08-12T00:14:18Z</time></trkpt>
<trkpt lat="35.86609" lon="138.739"><ele>1324</ele><time>2019-08-12T00:14:34Z</time></trkpt>
<trkpt lat="35.86609" lon="138.739"><ele>1324</ele><time>2019-08-12T00:14:49Z</time></trkpt>
<trkpt lat="35.86609" lon="138.739"><ele>1324</ele><time>2019-08-12T00:15:05Z</time></trkpt>
<trkpt lat="35.86609" lon="138.739"><ele>1324</ele><time>2019-08-12T00:15:35Z</time></trkpt>
<trkpt lat="35.86609" lon="138.739"><ele>1324</ele><time>2019-08-12T00:15:50Z</time></trkpt>
<trkpt lat="35.86609" lon="138.739"><ele>1324</ele><time>2019-08-12T00:16:05Z</time></trkpt>
<trkpt lat="35.86609" lon="138.739"><ele>1324</ele><time>2019-08-12T00:16:20Z</time></trkpt>
<trkpt lat="35.86609" lon="138.739"><ele>1324</ele><time>2019-08-12T00:16:36Z</time></trkpt>
<trkpt lat="35.86609" lon="138.739"><ele>1324</ele><time>2019-08-12T00:16:52Z</time></trkpt>
<trkpt lat="35.86609" lon="138.739"><ele>1324</ele><time>2019-08-12T00:17:08Z</time></trkpt>
<trkpt lat="35.86609" lon="138.739"><ele>1324</ele><time>2019-08-12T00:17:13Z</time></trkpt>
<trkpt lat="35.86609" lon="138.739"><ele>1324</ele><time>2019-08-12T00:17:29Z</time></trkpt>
<trkpt lat="35.86609" lon="138.739"><ele>1324</ele><time>2019-08-12T00:17:45Z</time></trkpt>
<trkpt lat="35.86609" lon="138.739"><ele>1324</ele><time>2019-08-12T00:18:00Z</time></trkpt>
<trkpt lat="35.86609" lon="138.739"><ele>1324</ele><time>2019-08-12T00:18:16Z</time></trkpt>
<trkpt lat="35.86609" lon="138.739"><ele>1324</ele><time>2019-08-12T00:18:31Z</time></trkpt>
<trkpt lat="35.86609" lon="138.739"><ele>1324</ele><time>2019-08-12T00:18:46Z</time></trkpt>
<trkpt lat="35.86609" lon="138.739"><ele>1324</ele><time>2019-08-12T00:19:01Z</time></trkpt>
<trkpt lat="35.86609" lon="138.739"><ele>1324</ele><time>2019-08-12T00:19:16Z</time></trkpt>
<trkpt lat="35.86609" lon="138.739"><ele>1324</ele><time>2019-08-12T00:19:31Z</time></trkpt>
<trkpt lat="35.86609" lon="138.739"><ele>1324</ele><time>2019-08-12T00:19:46Z</time></trkpt>
<trkpt lat="35.86609" lon="138.739"><ele>1324</ele><time>2019-08-12T00:20:02Z</time></trkpt>
<trkpt lat="35.86609" lon="138.739"><ele>1324</ele><time>2019-08-12T00:20:17Z</time></trkpt>
<trkpt lat="35.86609" lon="138.739"><ele>1324</ele><time>2019-08-12T00:20:33Z</time></trkpt>
<trkpt lat="35.86609" lon="138.739"><ele>1324</ele><time>2019-08-12T00:20:49Z</time></trkpt>
<trkpt lat="35.86609" lon="138.739"><ele>1324</ele><time>2019-08-12T00:21:05Z</time></trkpt>
<trkpt lat="35.86609" lon="138.739"><ele>1324</ele><time>2019-08-12T00:21:21Z</time></trkpt>
<trkpt lat="35.865974" lon="138.73901"><ele>1321</ele><time>2019-08-12T00:21:52Z</time></trkpt>
<trkpt lat="35.8658" lon="138.73901"><ele>1322</ele><time>2019-08-12T00:22:07Z</time></trkpt>
<trkpt lat="35.86572" lon="138.73906"><ele>1321</ele><time>2019-08-12T00:22:14Z</time></trkpt>
<trkpt lat="35.865593" lon="138.73917"><ele>1317</ele><time>2019-08-12T00:22:30Z</time></trkpt>
<trkpt lat="35.86542" lon="138.73926"><ele>1315</ele><time>2019-08-12T00:22:45Z</time></trkpt>
<trkpt lat="35.865284" lon="138.73923"><ele>1309</ele><time>2019-08-12T00:23:00Z</time></trkpt>
<trkpt lat="35.86508" lon="138.7393"><ele>1310</ele><time>2019-08-12T00:23:15Z</time></trkpt>
<trkpt lat="35.864906" lon="138.73926"><ele>1319</ele><time>2019-08-12T00:23:31Z</time></trkpt>
<trkpt lat="35.86466" lon="138.73926"><ele>1317</ele><time>2019-08-12T00:23:47Z</time></trkpt>
<trkpt lat="35.864468" lon="138.73923"><ele>1314</ele><time>2019-08-12T00:24:03Z</time></trkpt>
<trkpt lat="35.864258" lon="138.73933"><ele>1313</ele><time>2019-08-12T00:24:19Z</time></trkpt>
<trkpt lat="35.864067" lon="138.73941"><ele>1308</ele><time>2019-08-12T00:24:34Z</time></trkpt>
<trkpt lat="35.863922" lon="138.73933"><ele>1307</ele><time>2019-08-12T00:24:49Z</time></trkpt>
<trkpt lat="35.86373" lon="138.7393"><ele>1312</ele><time>2019-08-12T00:25:04Z</time></trkpt>
<trkpt lat="35.863564" lon="138.73921"><ele>1305</ele><time>2019-08-12T00:25:19Z</time></trkpt>
<trkpt lat="35.8633" lon="138.73935"><ele>1309</ele><time>2019-08-12T00:25:35Z</time></trkpt>
<trkpt lat="35.863132" lon="138.73933"><ele>1305</ele><time>2019-08-12T00:25:50Z</time></trkpt>
<trkpt lat="35.863045" lon="138.73936"><ele>1307</ele><time>2019-08-12T00:26:05Z</time></trkpt>
<trkpt lat="35.862843" lon="138.73935"><ele>1308</ele><time>2019-08-12T00:26:21Z</time></trkpt>
<trkpt lat="35.862736" lon="138.7394"><ele>1309</ele><time>2019-08-12T00:26:37Z</time></trkpt>
<trkpt lat="35.862545" lon="138.7395"><ele>1309</ele><time>2019-08-12T00:26:53Z</time></trkpt>
<trkpt lat="35.86243" lon="138.7396"><ele>1304</ele><time>2019-08-12T00:27:08Z</time></trkpt>
<trkpt lat="35.862377" lon="138.73964"><ele>1303</ele><time>2019-08-12T00:27:14Z</time></trkpt>
<trkpt lat="35.862198" lon="138.73967"><ele>1304</ele><time>2019-08-12T00:27:29Z</time></trkpt>
<trkpt lat="35.862034" lon="138.73975"><ele>1307</ele><time>2019-08-12T00:27:44Z</time></trkpt>
<trkpt lat="35.86185" lon="138.73982"><ele>1308</ele><time>2019-08-12T00:27:59Z</time></trkpt>
<trkpt lat="35.861877" lon="138.73991"><ele>1312</ele><time>2019-08-12T00:28:14Z</time></trkpt>
<trkpt lat="35.861874" lon="138.73994"><ele>1315</ele><time>2019-08-12T00:28:29Z</time></trkpt>
<trkpt lat="35.86201" lon="138.74016"><ele>1318</ele><time>2019-08-12T00:28:44Z</time></trkpt>
<trkpt lat="35.862236" lon="138.74014"><ele>1312</ele><time>2019-08-12T00:29:00Z</time></trkpt>
<trkpt lat="35.862404" lon="138.74025"><ele>1309</ele><time>2019-08-12T00:29:15Z</time></trkpt>
<trkpt lat="35.86248" lon="138.74026"><ele>1311</ele><time>2019-08-12T00:29:30Z</time></trkpt>
<trkpt lat="35.862713" lon="138.7403"><ele>1304</ele><time>2019-08-12T00:29:46Z</time></trkpt>
<trkpt lat="35.86288" lon="138.74031"><ele>1312</ele><time>2019-08-12T00:30:01Z</time></trkpt>
<trkpt lat="35.863045" lon="138.74023"><ele>1313</ele><time>2019-08-12T00:30:17Z</time></trkpt>
<trkpt lat="35.863228" lon="138.74025"><ele>1308</ele><time>2019-08-12T00:30:32Z</time></trkpt>
<trkpt lat="35.86345" lon="138.74031"><ele>1309</ele><time>2019-08-12T00:30:47Z</time></trkpt>
<trkpt lat="35.863617" lon="138.74037"><ele>1307</ele><time>2019-08-12T00:31:02Z</time></trkpt>
<trkpt lat="35.863857" lon="138.74043"><ele>1302</ele><time>2019-08-12T00:31:17Z</time></trkpt>
<trkpt lat="35.864063" lon="138.74048"><ele>1309</ele><time>2019-08-12T00:31:32Z</time></trkpt>
<trkpt lat="35.86421" lon="138.7406"><ele>1307</ele><time>2019-08-12T00:31:48Z</time></trkpt>
<trkpt lat="35.86431" lon="138.7406"><ele>1309</ele><time>2019-08-12T00:32:03Z</time></trkpt>
<trkpt lat="35.864475" lon="138.74066"><ele>1304</ele><time>2019-08-12T00:32:14Z</time></trkpt>
<trkpt lat="35.86467" lon="138.74072"><ele>1297</ele><time>2019-08-12T00:32:30Z</time></trkpt>
<trkpt lat="35.864807" lon="138.7407"><ele>1307</ele><time>2019-08-12T00:32:45Z</time></trkpt>
<trkpt lat="35.864998" lon="138.74078"><ele>1296</ele><time>2019-08-12T00:33:01Z</time></trkpt>
<trkpt lat="35.865147" lon="138.74083"><ele>1295</ele><time>2019-08-12T00:33:17Z</time></trkpt>
<trkpt lat="35.865284" lon="138.7408"><ele>1297</ele><time>2019-08-12T00:33:32Z</time></trkpt>
<trkpt lat="35.86536" lon="138.74084"><ele>1291</ele><time>2019-08-12T00:33:47Z</time></trkpt>
<trkpt lat="35.86551" lon="138.74095"><ele>1285</ele><time>2019-08-12T00:34:02Z</time></trkpt>
<trkpt lat="35.86571" lon="138.74098"><ele>1285</ele><time>2019-08-12T00:34:17Z</time></trkpt>
<trkpt lat="35.865932" lon="138.7411"><ele>1279</ele><time>2019-08-12T00:34:33Z</time></trkpt>
<trkpt lat="35.866123" lon="138.74109"><ele>1283</ele><time>2019-08-12T00:34:48Z</time></trkpt>
<trkpt lat="35.8663" lon="138.7411"><ele>1284</ele><time>2019-08-12T00:35:03Z</time></trkpt>
<trkpt lat="35.866474" lon="138.7411"><ele>1290</ele><time>2019-08-12T00:35:18Z</time></trkpt>
<trkpt lat="35.866684" lon="138.74113"><ele>1289</ele><time>2019-08-12T00:35:34Z</time></trkpt>
<trkpt lat="35.866898" lon="138.74117"><ele>1283</ele><time>2019-08-12T00:35:50Z</time></trkpt>
<trkpt lat="35.86709" lon="138.74123"><ele>1276</ele><time>2019-08-12T00:36:05Z</time></trkpt>
<trkpt lat="35.86727" lon="138.74133"><ele>1273</ele><time>2019-08-12T00:36:20Z</time></trkpt>
<trkpt lat="35.867493" lon="138.74136"><ele>1279</ele><time>2019-08-12T00:36:35Z</time></trkpt>
<trkpt lat="35.867695" lon="138.74132"><ele>1279</ele><time>2019-08-12T00:36:50Z</time></trkpt>
<trkpt lat="35.86791" lon="138.7413"><ele>1272</ele><time>2019-08-12T00:37:05Z</time></trkpt>
<trkpt lat="35.86805" lon="138.74129"><ele>1265</ele><time>2019-08-12T00:37:14Z</time></trkpt>
<trkpt lat="35.868134" lon="138.74129"><ele>1265</ele><time>2019-08-12T00:37:30Z</time></trkpt>
<trkpt lat="35.868168" lon="138.74141"><ele>1262</ele><time>2019-08-12T00:37:45Z</time></trkpt>
<trkpt lat="35.868164" lon="138.74158"><ele>1267</ele><time>2019-08-12T00:38:00Z</time></trkpt>
<trkpt lat="35.868122" lon="138.7418"><ele>1265</ele><time>2019-08-12T00:38:15Z</time></trkpt>
<trkpt lat="35.86802" lon="138.74203"><ele>1262</ele><time>2019-08-12T00:38:31Z</time></trkpt>
<trkpt lat="35.86796" lon="138.74222"><ele>1255</ele><time>2019-08-12T00:38:46Z</time></trkpt>
<trkpt lat="35.867817" lon="138.74239"><ele>1247</ele><time>2019-08-12T00:39:01Z</time></trkpt>
<trkpt lat="35.86776" lon="138.74252"><ele>1244</ele><time>2019-08-12T00:39:17Z</time></trkpt>
<trkpt lat="35.86759" lon="138.74261"><ele>1243</ele><time>2019-08-12T00:39:32Z</time></trkpt>
<trkpt lat="35.867493" lon="138.74263"><ele>1244</ele><time>2019-08-12T00:39:47Z</time></trkpt>
<trkpt lat="35.86721" lon="138.74275"><ele>1237</ele><time>2019-08-12T00:40:03Z</time></trkpt>
<trkpt lat="35.867016" lon="138.74283"><ele>1238</ele><time>2019-08-12T00:40:19Z</time></trkpt>
<trkpt lat="35.86688" lon="138.74294"><ele>1243</ele><time>2019-08-12T00:40:34Z</time></trkpt>
<trkpt lat="35.866856" lon="138.74313"><ele>1243</ele><time>2019-08-12T00:40:49Z</time></trkpt>
<trkpt lat="35.866673" lon="138.74336"><ele>1238</ele><time>2019-08-12T00:41:04Z</time></trkpt>
<trkpt lat="35.866585" lon="138.7435"><ele>1245</ele><time>2019-08-12T00:41:19Z</time></trkpt>
<trkpt lat="35.866604" lon="138.74355"><ele>1242</ele><time>2019-08-12T00:41:35Z</time></trkpt>
<trkpt lat="35.866573" lon="138.74356"><ele>1241</ele><time>2019-08-12T00:41:50Z</time></trkpt>
<trkpt lat="35.866455" lon="138.74359"><ele>1241</ele><time>2019-08-12T00:42:06Z</time></trkpt>
<trkpt lat="35.866352" lon="138.74364"><ele>1239</ele><time>2019-08-12T00:42:15Z</time></trkpt>
<trkpt lat="35.86631" lon="138.74374"><ele>1246</ele><time>2019-08-12T00:42:31Z</time></trkpt>
<trkpt lat="35.866356" lon="138.7439"><ele>1251</ele><time>2019-08-12T00:42:46Z</time></trkpt>
<trkpt lat="35.86635" lon="138.7441"><ele>1252</ele><time>2019-08-12T00:43:02Z</time></trkpt>
<trkpt lat="35.866364" lon="138.74435"><ele>1234</ele><time>2019-08-12T00:43:18Z</time></trkpt>
<trkpt lat="35.866302" lon="138.74455"><ele>1232</ele><time>2019-08-12T00:43:33Z</time></trkpt>
<trkpt lat="35.86621" lon="138.74475"><ele>1235</ele><time>2019-08-12T00:43:48Z</time></trkpt>
<trkpt lat="35.86615" lon="138.74492"><ele>1232</ele><time>2019-08-12T00:44:03Z</time></trkpt>
<trkpt lat="35.86597" lon="138.74492"><ele>1229</ele><time>2019-08-12T00:44:19Z</time></trkpt>
<trkpt lat="35.86582" lon="138.74487"><ele>1224</ele><time>2019-08-12T00:44:34Z</time></trkpt>
<trkpt lat="35.86563" lon="138.74486"><ele>1220</ele><time>2019-08-12T00:44:49Z</time></trkpt>
<trkpt lat="35.86555" lon="138.74492"><ele>1220</ele><time>2019-08-12T00:45:04Z</time></trkpt>
<trkpt lat="35.865513" lon="138.74496"><ele>1227</ele><time>2019-08-12T00:45:20Z</time></trkpt>
<trkpt lat="35.86547" lon="138.74513"><ele>1240</ele><time>2019-08-12T00:45:35Z</time></trkpt>
<trkpt lat="35.865574" lon="138.74527"><ele>1243</ele><time>2019-08-12T00:45:51Z</time></trkpt>
<trkpt lat="35.865635" lon="138.74536"><ele>1242</ele><time>2019-08-12T00:46:06Z</time></trkpt>
<trkpt lat="35.865723" lon="138.74554"><ele>1233</ele><time>2019-08-12T00:46:21Z</time></trkpt>
<trkpt lat="35.865837" lon="138.74576"><ele>1231</ele><time>2019-08-12T00:46:36Z</time></trkpt>
<trkpt lat="35.865944" lon="138.74596"><ele>1228</ele><time>2019-08-12T00:46:51Z</time></trkpt>
<trkpt lat="35.865997" lon="138.74619"><ele>1231</ele><time>2019-08-12T00:47:07Z</time></trkpt>
<trkpt lat="35.866062" lon="138.74628"><ele>1226</ele><time>2019-08-12T00:47:15Z</time></trkpt>
<trkpt lat="35.866173" lon="138.74652"><ele>1223</ele><time>2019-08-12T00:47:31Z</time></trkpt>
<trkpt lat="35.866116" lon="138.7467"><ele>1219</ele><time>2019-08-12T00:47:46Z</time></trkpt>
<trkpt lat="35.866077" lon="138.7467"><ele>1216</ele><time>2019-08-12T00:48:02Z</time></trkpt>
<trkpt lat="35.86593" lon="138.74677"><ele>1204</ele><time>2019-08-12T00:48:18Z</time></trkpt>
<trkpt lat="35.86583" lon="138.74666"><ele>1199</ele><time>2019-08-12T00:48:33Z</time></trkpt>
<trkpt lat="35.865692" lon="138.74655"><ele>1199</ele><time>2019-08-12T00:48:49Z</time></trkpt>
<trkpt lat="35.86564" lon="138.74657"><ele>1201</ele><time>2019-08-12T00:49:19Z</time></trkpt>
<trkpt lat="35.865627" lon="138.74669"><ele>1219</ele><time>2019-08-12T00:49:34Z</time></trkpt>
<trkpt lat="35.865517" lon="138.74689"><ele>1215</ele><time>2019-08-12T00:49:50Z</time></trkpt>
<trkpt lat="35.86562" lon="138.74713"><ele>1222</ele><time>2019-08-12T00:50:06Z</time></trkpt>
<trkpt lat="35.86568" lon="138.74736"><ele>1217</ele><time>2019-08-12T00:50:22Z</time></trkpt>
<trkpt lat="35.865734" lon="138.74757"><ele>1199</ele><time>2019-08-12T00:50:37Z</time></trkpt>
<trkpt lat="35.865788" lon="138.74765"><ele>1193</ele><time>2019-08-12T00:50:52Z</time></trkpt>
<trkpt lat="35.86574" lon="138.74771"><ele>1196</ele><time>2019-08-12T00:51:08Z</time></trkpt>
<trkpt lat="35.865646" lon="138.74791"><ele>1196</ele><time>2019-08-12T00:51:24Z</time></trkpt>
<trkpt lat="35.865593" lon="138.748"><ele>1190</ele><time>2019-08-12T00:51:40Z</time></trkpt>
<trkpt lat="35.86556" lon="138.74803"><ele>1191</ele><time>2019-08-12T00:51:55Z</time></trkpt>
<trkpt lat="35.86551" lon="138.74806"><ele>1188</ele><time>2019-08-12T00:52:10Z</time></trkpt>
<trkpt lat="35.865517" lon="138.74808"><ele>1189</ele><time>2019-08-12T00:52:15Z</time></trkpt>
<trkpt lat="35.865543" lon="138.74811"><ele>1190</ele><time>2019-08-12T00:52:31Z</time></trkpt>
<trkpt lat="35.865547" lon="138.74811"><ele>1191</ele><time>2019-08-12T00:52:46Z</time></trkpt>
<trkpt lat="35.865547" lon="138.74814"><ele>1192</ele><time>2019-08-12T00:53:02Z</time></trkpt>
<trkpt lat="35.865524" lon="138.74815"><ele>1189</ele><time>2019-08-12T00:53:17Z</time></trkpt>
<trkpt lat="35.865517" lon="138.74815"><ele>1187</ele><time>2019-08-12T00:53:47Z</time></trkpt>
<trkpt lat="35.865517" lon="138.74815"><ele>1188</ele><time>2019-08-12T00:54:02Z</time></trkpt>
<trkpt lat="35.865517" lon="138.74815"><ele>1188</ele><time>2019-08-12T00:54:18Z</time></trkpt>
<trkpt lat="35.86552" lon="138.74814"><ele>1188</ele><time>2019-08-12T00:54:33Z</time></trkpt>
<trkpt lat="35.865555" lon="138.7481"><ele>1185</ele><time>2019-08-12T00:54:48Z</time></trkpt>
<trkpt lat="35.86562" lon="138.7482"><ele>1178</ele><time>2019-08-12T00:55:18Z</time></trkpt>
<trkpt lat="35.865643" lon="138.7482"><ele>1176</ele><time>2019-08-12T00:55:33Z</time></trkpt>
<trkpt lat="35.8657" lon="138.74826"><ele>1180</ele><time>2019-08-12T00:55:49Z</time></trkpt>
<trkpt lat="35.86564" lon="138.74834"><ele>1173</ele><time>2019-08-12T00:56:05Z</time></trkpt>
<trkpt lat="35.86575" lon="138.74846"><ele>1161</ele><time>2019-08-12T00:56:51Z</time></trkpt>
<trkpt lat="35.865803" lon="138.74857"><ele>1156</ele><time>2019-08-12T00:57:07Z</time></trkpt>
<trkpt lat="35.86581" lon="138.7486"><ele>1155</ele><time>2019-08-12T00:57:16Z</time></trkpt>
<trkpt lat="35.8659" lon="138.74866"><ele>1151</ele><time>2019-08-12T00:57:46Z</time></trkpt>
<trkpt lat="35.866062" lon="138.7486"><ele>1151</ele><time>2019-08-12T00:58:01Z</time></trkpt>
<trkpt lat="35.866234" lon="138.7485"><ele>1148</ele><time>2019-08-12T00:58:16Z</time></trkpt>
<trkpt lat="35.86637" lon="138.74846"><ele>1145</ele><time>2019-08-12T00:58:32Z</time></trkpt>
<trkpt lat="35.86658" lon="138.74835"><ele>1143</ele><time>2019-08-12T00:58:48Z</time></trkpt>
<trkpt lat="35.8668" lon="138.74835"><ele>1139</ele><time>2019-08-12T00:59:03Z</time></trkpt>
<trkpt lat="35.866966" lon="138.7483"><ele>1143</ele><time>2019-08-12T00:59:18Z</time></trkpt>
<trkpt lat="35.86714" lon="138.74834"><ele>1144</ele><time>2019-08-12T00:59:33Z</time></trkpt>
<trkpt lat="35.867317" lon="138.74835"><ele>1147</ele><time>2019-08-12T00:59:48Z</time></trkpt>
<trkpt lat="35.867447" lon="138.74841"><ele>1147</ele><time>2019-08-12T01:00:03Z</time></trkpt>
<trkpt lat="35.867535" lon="138.74847"><ele>1142</ele><time>2019-08-12T01:00:33Z</time></trkpt>
<trkpt lat="35.86755" lon="138.7485"><ele>1140</ele><time>2019-08-12T01:00:48Z</time></trkpt>
<trkpt lat="35.86755" lon="138.7485"><ele>1140</ele><time>2019-08-12T01:01:03Z</time></trkpt>
<trkpt lat="35.86755" lon="138.7485"><ele>1140</ele><time>2019-08-12T01:01:18Z</time></trkpt>
<trkpt lat="35.86755" lon="138.7485"><ele>1140</ele><time>2019-08-12T01:01:33Z</time></trkpt>
<trkpt lat="35.86755" lon="138.7485"><ele>1140</ele><time>2019-08-12T01:01:49Z</time></trkpt>
<trkpt lat="35.86755" lon="138.7485"><ele>1140</ele><time>2019-08-12T01:02:04Z</time></trkpt>
<trkpt lat="35.86755" lon="138.7485"><ele>1139</ele><time>2019-08-12T01:02:16Z</time></trkpt>
<trkpt lat="35.86755" lon="138.7485"><ele>1139</ele><time>2019-08-12T01:02:33Z</time></trkpt>
<trkpt lat="35.86755" lon="138.7485"><ele>1139</ele><time>2019-08-12T01:02:49Z</time></trkpt>
<trkpt lat="35.86755" lon="138.7485"><ele>1138</ele><time>2019-08-12T01:03:05Z</time></trkpt>
<trkpt lat="35.86755" lon="138.7485"><ele>1138</ele><time>2019-08-12T01:03:20Z</time></trkpt>
<trkpt lat="35.86755" lon="138.7485"><ele>1138</ele><time>2019-08-12T01:03:36Z</time></trkpt>
<trkpt lat="35.86755" lon="138.7485"><ele>1138</ele><time>2019-08-12T01:03:51Z</time></trkpt>
<trkpt lat="35.86755" lon="138.7485"><ele>1138</ele><time>2019-08-12T01:04:06Z</time></trkpt>
<trkpt lat="35.86755" lon="138.7485"><ele>1138</ele><time>2019-08-12T01:04:22Z</time></trkpt>
<trkpt lat="35.86755" lon="138.7485"><ele>1137</ele><time>2019-08-12T01:04:37Z</time></trkpt>
<trkpt lat="35.86755" lon="138.7485"><ele>1137</ele><time>2019-08-12T01:04:53Z</time></trkpt>
<trkpt lat="35.86755" lon="138.7485"><ele>1137</ele><time>2019-08-12T01:05:08Z</time></trkpt>
<trkpt lat="35.86755" lon="138.7485"><ele>1137</ele><time>2019-08-12T01:05:23Z</time></trkpt>
<trkpt lat="35.867577" lon="138.74855"><ele>1135</ele><time>2019-08-12T01:05:38Z</time></trkpt>
<trkpt lat="35.86753" lon="138.7488"><ele>1133</ele><time>2019-08-12T01:06:25Z</time></trkpt>
<trkpt lat="35.86764" lon="138.74883"><ele>1074</ele><time>2019-08-12T01:06:40Z</time></trkpt>
<trkpt lat="35.867706" lon="138.74867"><ele>1095</ele><time>2019-08-12T01:06:55Z</time></trkpt>
<trkpt lat="35.8677" lon="138.74866"><ele>1095</ele><time>2019-08-12T01:07:11Z</time></trkpt>
<trkpt lat="35.8677" lon="138.74866"><ele>1096</ele><time>2019-08-12T01:07:17Z</time></trkpt>
<trkpt lat="35.867695" lon="138.74866"><ele>1097</ele><time>2019-08-12T01:07:33Z</time></trkpt>
<trkpt lat="35.86769" lon="138.74866"><ele>1098</ele><time>2019-08-12T01:07:48Z</time></trkpt>
<trkpt lat="35.867687" lon="138.74866"><ele>1100</ele><time>2019-08-12T01:08:03Z</time></trkpt>
<trkpt lat="35.867683" lon="138.74866"><ele>1101</ele><time>2019-08-12T01:08:19Z</time></trkpt>
<trkpt lat="35.867683" lon="138.74866"><ele>1101</ele><time>2019-08-12T01:08:34Z</time></trkpt>
<trkpt lat="35.86768" lon="138.74866"><ele>1102</ele><time>2019-08-12T01:08:49Z</time></trkpt>
<trkpt lat="35.86767" lon="138.74867"><ele>1107</ele><time>2019-08-12T01:09:04Z</time></trkpt>
<trkpt lat="35.867653" lon="138.74872"><ele>1113</ele><time>2019-08-12T01:09:20Z</time></trkpt>
<trkpt lat="35.867653" lon="138.74872"><ele>1113</ele><time>2019-08-12T01:09:35Z</time></trkpt>
<trkpt lat="35.867634" lon="138.7487"><ele>1120</ele><time>2019-08-12T01:09:50Z</time></trkpt>
<trkpt lat="35.867615" lon="138.74872"><ele>1119</ele><time>2019-08-12T01:10:05Z</time></trkpt>
<trkpt lat="35.86761" lon="138.74872"><ele>1118</ele><time>2019-08-12T01:10:20Z</time></trkpt>
<trkpt lat="35.86761" lon="138.74872"><ele>1118</ele><time>2019-08-12T01:10:35Z</time></trkpt>
<trkpt lat="35.86761" lon="138.74872"><ele>1118</ele><time>2019-08-12T01:10:51Z</time></trkpt>
<trkpt lat="35.86761" lon="138.74872"><ele>1118</ele><time>2019-08-12T01:11:06Z</time></trkpt>
<trkpt lat="35.86761" lon="138.74872"><ele>1119</ele><time>2019-08-12T01:11:22Z</time></trkpt>
<trkpt lat="35.86761" lon="138.74872"><ele>1119</ele><time>2019-08-12T01:11:38Z</time></trkpt>
<trkpt lat="35.86761" lon="138.74872"><ele>1119</ele><time>2019-08-12T01:11:53Z</time></trkpt>
<trkpt lat="35.86761" lon="138.74872"><ele>1119</ele><time>2019-08-12T01:12:08Z</time></trkpt>
<trkpt lat="35.867607" lon="138.74872"><ele>1119</ele><time>2019-08-12T01:12:17Z</time></trkpt>
<trkpt lat="35.867607" lon="138.74872"><ele>1119</ele><time>2019-08-12T01:12:32Z</time></trkpt>
<trkpt lat="35.867607" lon="138.74872"><ele>1119</ele><time>2019-08-12T01:12:47Z</time></trkpt>
<trkpt lat="35.867596" lon="138.74869"><ele>1127</ele><time>2019-08-12T01:13:03Z</time></trkpt>
<trkpt lat="35.86759" lon="138.74869"><ele>1127</ele><time>2019-08-12T01:13:18Z</time></trkpt>
<trkpt lat="35.867588" lon="138.7487"><ele>1127</ele><time>2019-08-12T01:13:33Z</time></trkpt>
<trkpt lat="35.867588" lon="138.7487"><ele>1127</ele><time>2019-08-12T01:13:48Z</time></trkpt>
<trkpt lat="35.867588" lon="138.7487"><ele>1127</ele><time>2019-08-12T01:14:03Z</time></trkpt>
<trkpt lat="35.867588" lon="138.7487"><ele>1127</ele><time>2019-08-12T01:14:19Z</time></trkpt>
<trkpt lat="35.867588" lon="138.7487"><ele>1128</ele><time>2019-08-12T01:14:34Z</time></trkpt>
<trkpt lat="35.867588" lon="138.7487"><ele>1128</ele><time>2019-08-12T01:14:50Z</time></trkpt>
<trkpt lat="35.867588" lon="138.7487"><ele>1128</ele><time>2019-08-12T01:15:05Z</time></trkpt>
<trkpt lat="35.867588" lon="138.7487"><ele>1128</ele><time>2019-08-12T01:15:20Z</time></trkpt>
<trkpt lat="35.867588" lon="138.7487"><ele>1128</ele><time>2019-08-12T01:15:35Z</time></trkpt>
<trkpt lat="35.867588" lon="138.7487"><ele>1128</ele><time>2019-08-12T01:15:50Z</time></trkpt>
<trkpt lat="35.867588" lon="138.7487"><ele>1128</ele><time>2019-08-12T01:16:06Z</time></trkpt>
<trkpt lat="35.867588" lon="138.7487"><ele>1128</ele><time>2019-08-12T01:16:21Z</time></trkpt>
<trkpt lat="35.867596" lon="138.74867"><ele>1130</ele><time>2019-08-12T01:16:36Z</time></trkpt>
<trkpt lat="35.867573" lon="138.74866"><ele>1131</ele><time>2019-08-12T01:16:51Z</time></trkpt>
<trkpt lat="35.867573" lon="138.74866"><ele>1131</ele><time>2019-08-12T01:17:07Z</time></trkpt>
<trkpt lat="35.867573" lon="138.74866"><ele>1131</ele><time>2019-08-12T01:17:17Z</time></trkpt>
<trkpt lat="35.86757" lon="138.74866"><ele>1131</ele><time>2019-08-12T01:17:34Z</time></trkpt>
<trkpt lat="35.86757" lon="138.74866"><ele>1131</ele><time>2019-08-12T01:17:50Z</time></trkpt>
<trkpt lat="35.86757" lon="138.74866"><ele>1131</ele><time>2019-08-12T01:18:05Z</time></trkpt>
<trkpt lat="35.86757" lon="138.74866"><ele>1131</ele><time>2019-08-12T01:18:20Z</time></trkpt>
<trkpt lat="35.86757" lon="138.74867"><ele>1132</ele><time>2019-08-12T01:18:35Z</time></trkpt>
<trkpt lat="35.86757" lon="138.74867"><ele>1132</ele><time>2019-08-12T01:18:50Z</time></trkpt>
<trkpt lat="35.86757" lon="138.74867"><ele>1132</ele><time>2019-08-12T01:19:05Z</time></trkpt>
<trkpt lat="35.86757" lon="138.74867"><ele>1132</ele><time>2019-08-12T01:19:20Z</time></trkpt>
<trkpt lat="35.86767" lon="138.7487"><ele>1106</ele><time>2019-08-12T01:20:05Z</time></trkpt>
<trkpt lat="35.86767" lon="138.74872"><ele>1106</ele><time>2019-08-12T01:20:20Z</time></trkpt>
<trkpt lat="35.867664" lon="138.74872"><ele>1107</ele><time>2019-08-12T01:20:35Z</time></trkpt>
<trkpt lat="35.867664" lon="138.74872"><ele>1107</ele><time>2019-08-12T01:20:50Z</time></trkpt>
<trkpt lat="35.86766" lon="138.74872"><ele>1107</ele><time>2019-08-12T01:21:20Z</time></trkpt>
<trkpt lat="35.86766" lon="138.74872"><ele>1108</ele><time>2019-08-12T01:21:36Z</time></trkpt>
<trkpt lat="35.86766" lon="138.74872"><ele>1108</ele><time>2019-08-12T01:21:51Z</time></trkpt>
<trkpt lat="35.867657" lon="138.74872"><ele>1109</ele><time>2019-08-12T01:22:07Z</time></trkpt>
<trkpt lat="35.867657" lon="138.74872"><ele>1110</ele><time>2019-08-12T01:22:17Z</time></trkpt>
<trkpt lat="35.867657" lon="138.74872"><ele>1110</ele><time>2019-08-12T01:22:33Z</time></trkpt>
<trkpt lat="35.867657" lon="138.74872"><ele>1110</ele><time>2019-08-12T01:22:48Z</time></trkpt>
<trkpt lat="35.867653" lon="138.74872"><ele>1111</ele><time>2019-08-12T01:23:03Z</time></trkpt>
<trkpt lat="35.867653" lon="138.74872"><ele>1111</ele><time>2019-08-12T01:23:19Z</time></trkpt>
<trkpt lat="35.867653" lon="138.74872"><ele>1112</ele><time>2019-08-12T01:23:34Z</time></trkpt>
<trkpt lat="35.86765" lon="138.74872"><ele>1112</ele><time>2019-08-12T01:23:49Z</time></trkpt>
<trkpt lat="35.86765" lon="138.74872"><ele>1112</ele><time>2019-08-12T01:24:04Z</time></trkpt>
<trkpt lat="35.867657" lon="138.7487"><ele>1120</ele><time>2019-08-12T01:24:51Z</time></trkpt>
<trkpt lat="35.867786" lon="138.74863"><ele>1116</ele><time>2019-08-12T01:25:22Z</time></trkpt>
<trkpt lat="35.867874" lon="138.74869"><ele>1127</ele><time>2019-08-12T01:25:37Z</time></trkpt>
<trkpt lat="35.86797" lon="138.74886"><ele>1126</ele><time>2019-08-12T01:25:53Z</time></trkpt>
<trkpt lat="35.86804" lon="138.74907"><ele>1131</ele><time>2019-08-12T01:26:08Z</time></trkpt>
<trkpt lat="35.868137" lon="138.74931"><ele>1135</ele><time>2019-08-12T01:26:24Z</time></trkpt>
<trkpt lat="35.86823" lon="138.74944"><ele>1145</ele><time>2019-08-12T01:26:39Z</time></trkpt>
<trkpt lat="35.86809" lon="138.74945"><ele>1150</ele><time>2019-08-12T01:27:10Z</time></trkpt>
<trkpt lat="35.86804" lon="138.74939"><ele>1154</ele><time>2019-08-12T01:27:18Z</time></trkpt>
<trkpt lat="35.8678" lon="138.74934"><ele>1144</ele><time>2019-08-12T01:27:33Z</time></trkpt>
<trkpt lat="35.867542" lon="138.74934"><ele>1131</ele><time>2019-08-12T01:27:48Z</time></trkpt>
<trkpt lat="35.867355" lon="138.74947"><ele>1130</ele><time>2019-08-12T01:28:04Z</time></trkpt>
<trkpt lat="35.867214" lon="138.74971"><ele>1119</ele><time>2019-08-12T01:28:19Z</time></trkpt>
<trkpt lat="35.867157" lon="138.74995"><ele>1130</ele><time>2019-08-12T01:28:34Z</time></trkpt>
<trkpt lat="35.86705" lon="138.75015"><ele>1131</ele><time>2019-08-12T01:28:49Z</time></trkpt>
<trkpt lat="35.86695" lon="138.75026"><ele>1121</ele><time>2019-08-12T01:29:04Z</time></trkpt>
<trkpt lat="35.866802" lon="138.75037"><ele>1123</ele><time>2019-08-12T01:29:19Z</time></trkpt>
<trkpt lat="35.86662" lon="138.75055"><ele>1118</ele><time>2019-08-12T01:29:35Z</time></trkpt>
<trkpt lat="35.866455" lon="138.75078"><ele>1117</ele><time>2019-08-12T01:29:50Z</time></trkpt>
<trkpt lat="35.866344" lon="138.751"><ele>1111</ele><time>2019-08-12T01:30:05Z</time></trkpt>
<trkpt lat="35.866264" lon="138.75122"><ele>1115</ele><time>2019-08-12T01:30:20Z</time></trkpt>
<trkpt lat="35.86614" lon="138.75136"><ele>1112</ele><time>2019-08-12T01:30:35Z</time></trkpt>
<trkpt lat="35.865925" lon="138.75153"><ele>1106</ele><time>2019-08-12T01:30:51Z</time></trkpt>
<trkpt lat="35.865795" lon="138.75166"><ele>1108</ele><time>2019-08-12T01:31:06Z</time></trkpt>
<trkpt lat="35.865635" lon="138.7518"><ele>1115</ele><time>2019-08-12T01:31:21Z</time></trkpt>
<trkpt lat="35.8655" lon="138.75203"><ele>1116</ele><time>2019-08-12T01:31:37Z</time></trkpt>
<trkpt lat="35.865414" lon="138.75226"><ele>1113</ele><time>2019-08-12T01:31:52Z</time></trkpt>
<trkpt lat="35.865314" lon="138.75261"><ele>1107</ele><time>2019-08-12T01:32:08Z</time></trkpt>
<trkpt lat="35.865265" lon="138.75276"><ele>1107</ele><time>2019-08-12T01:32:18Z</time></trkpt>
<trkpt lat="35.865166" lon="138.75299"><ele>1105</ele><time>2019-08-12T01:32:34Z</time></trkpt>
<trkpt lat="35.865067" lon="138.75317"><ele>1111</ele><time>2019-08-12T01:32:49Z</time></trkpt>
<trkpt lat="35.864895" lon="138.75334"><ele>1114</ele><time>2019-08-12T01:33:05Z</time></trkpt>
<trkpt lat="35.864796" lon="138.75366"><ele>1108</ele><time>2019-08-12T01:33:21Z</time></trkpt>
<trkpt lat="35.86482" lon="138.75385"><ele>1117</ele><time>2019-08-12T01:33:36Z</time></trkpt>
<trkpt lat="35.864807" lon="138.75403"><ele>1117</ele><time>2019-08-12T01:33:51Z</time></trkpt>
<trkpt lat="35.86469" lon="138.75403"><ele>1124</ele><time>2019-08-12T01:34:06Z</time></trkpt>
<trkpt lat="35.864605" lon="138.75407"><ele>1114</ele><time>2019-08-12T01:34:22Z</time></trkpt>
<trkpt lat="35.864307" lon="138.75423"><ele>1102</ele><time>2019-08-12T01:34:37Z</time></trkpt>
<trkpt lat="35.864037" lon="138.75432"><ele>1101</ele><time>2019-08-12T01:34:52Z</time></trkpt>
<trkpt lat="35.86399" lon="138.75443"><ele>1095</ele><time>2019-08-12T01:35:07Z</time></trkpt>
<trkpt lat="35.863846" lon="138.75453"><ele>1101</ele><time>2019-08-12T01:35:22Z</time></trkpt>
<trkpt lat="35.86381" lon="138.75455"><ele>1098</ele><time>2019-08-12T01:35:38Z</time></trkpt>
<trkpt lat="35.86353" lon="138.75476"><ele>1098</ele><time>2019-08-12T01:35:53Z</time></trkpt>
<trkpt lat="35.863346" lon="138.75491"><ele>1100</ele><time>2019-08-12T01:36:08Z</time></trkpt>
<trkpt lat="35.86309" lon="138.75519"><ele>1105</ele><time>2019-08-12T01:36:24Z</time></trkpt>
<trkpt lat="35.86292" lon="138.75534"><ele>1103</ele><time>2019-08-12T01:36:40Z</time></trkpt>
<trkpt lat="35.86271" lon="138.7553"><ele>1103</ele><time>2019-08-12T01:36:56Z</time></trkpt>
<trkpt lat="35.86248" lon="138.75525"><ele>1099</ele><time>2019-08-12T01:37:11Z</time></trkpt>
<trkpt lat="35.862408" lon="138.75522"><ele>1106</ele><time>2019-08-12T01:37:35Z</time></trkpt>
<trkpt lat="35.86254" lon="138.75516"><ele>1105</ele><time>2019-08-12T01:37:50Z</time></trkpt>
<trkpt lat="35.86272" lon="138.75505"><ele>1095</ele><time>2019-08-12T01:38:05Z</time></trkpt>
<trkpt lat="35.862926" lon="138.755"><ele>1084</ele><time>2019-08-12T01:38:21Z</time></trkpt>
<trkpt lat="35.86296" lon="138.755"><ele>1086</ele><time>2019-08-12T01:38:36Z</time></trkpt>
<trkpt lat="35.863064" lon="138.75482"><ele>1081</ele><time>2019-08-12T01:38:51Z</time></trkpt>
<trkpt lat="35.863235" lon="138.75464"><ele>1092</ele><time>2019-08-12T01:39:07Z</time></trkpt>
<trkpt lat="35.86337" lon="138.7545"><ele>1092</ele><time>2019-08-12T01:39:22Z</time></trkpt>
<trkpt lat="35.863415" lon="138.75446"><ele>1085</ele><time>2019-08-12T01:39:38Z</time></trkpt>
<trkpt lat="35.86342" lon="138.75446"><ele>1086</ele><time>2019-08-12T01:39:54Z</time></trkpt>
<trkpt lat="35.86341" lon="138.75446"><ele>1090</ele><time>2019-08-12T01:40:24Z</time></trkpt>
<trkpt lat="35.86341" lon="138.75446"><ele>1092</ele><time>2019-08-12T01:40:39Z</time></trkpt>
<trkpt lat="35.86344" lon="138.75449"><ele>1094</ele><time>2019-08-12T01:40:54Z</time></trkpt>
<trkpt lat="35.863445" lon="138.75449"><ele>1094</ele><time>2019-08-12T01:41:09Z</time></trkpt>
<trkpt lat="35.863445" lon="138.75449"><ele>1094</ele><time>2019-08-12T01:41:25Z</time></trkpt>
<trkpt lat="35.863445" lon="138.75449"><ele>1094</ele><time>2019-08-12T01:41:40Z</time></trkpt>
<trkpt lat="35.86345" lon="138.75447"><ele>1098</ele><time>2019-08-12T01:41:55Z</time></trkpt>
<trkpt lat="35.86345" lon="138.75447"><ele>1099</ele><time>2019-08-12T01:42:11Z</time></trkpt>
<trkpt lat="35.863453" lon="138.75447"><ele>1101</ele><time>2019-08-12T01:42:34Z</time></trkpt>
<trkpt lat="35.86345" lon="138.75446"><ele>1102</ele><time>2019-08-12T01:42:50Z</time></trkpt>
<trkpt lat="35.863445" lon="138.75446"><ele>1109</ele><time>2019-08-12T01:43:22Z</time></trkpt>
<trkpt lat="35.863453" lon="138.75449"><ele>1093</ele><time>2019-08-12T01:43:52Z</time></trkpt>
<trkpt lat="35.863453" lon="138.75449"><ele>1093</ele><time>2019-08-12T01:44:08Z</time></trkpt>
<trkpt lat="35.863426" lon="138.75447"><ele>1093</ele><time>2019-08-12T01:44:24Z</time></trkpt>
<trkpt lat="35.863388" lon="138.75446"><ele>1093</ele><time>2019-08-12T01:44:40Z</time></trkpt>
</trkseg>
</trk>
</gpx>
